Observation data for Earth on 08/08/2018      Previous  Date  Next       Current Mesonet Observations  Soil Data  Daily Summary Page  Observations in Plain Language
KEA1 080500Z 15010KT 25/11 A3007 RMK A01 T02460112  RH  043%=      5-min Rain = 0
KEA1 080501Z 15010KT 25/11 A3007 RMK A01 T02470113  RH  043%=      5-min Rain = 0
KEA1 080502Z 15009KT 25/11 A3007 RMK A01 T02460112  RH  043%=      5-min Rain = 0
KEA1 080503Z 15010KT 25/11 A3007 RMK A01 T02470112  RH  043%=      5-min Rain = 0
KEA1 080504Z 15009KT 25/11 A3007 RMK A01 T02480111  RH  042%=      5-min Rain = 0
KEA1 080505Z 15009KT 25/11 A3007 RMK A01 T02480112  RH  042%=      5-min Rain = 0
KEA1 080506Z 15009KT 25/11 A3007 RMK A01 T02480112  RH  042%=      5-min Rain = 0
KEA1 080507Z 15009KT 25/11 A3007 RMK A01 T02490112  RH  042%=      5-min Rain = 0
KEA1 080508Z 15009KT 25/11 A3007 RMK A01 T02490112  RH  042%=      5-min Rain = 0
KEA1 080509Z 15008KT 25/11 A3007 RMK A01 T02480112  RH  042%=      5-min Rain = 0
KEA1 080510Z 15009KT 25/11 A3007 RMK A01 T02480112  RH  042%=      5-min Rain = 0
KEA1 080511Z 15009KT 25/11 A3007 RMK A01 T02480112  RH  042%=      5-min Rain = 0
KEA1 080512Z 15009KT 25/11 A3007 RMK A01 T02480112  RH  042%=      5-min Rain = 0
KEA1 080513Z 15009KT 25/11 A3007 RMK A01 T02490112  RH  042%=      5-min Rain = 0
KEA1 080514Z 15009KT 25/11 A3007 RMK A01 T02490111  RH  042%=      5-min Rain = 0
KEA1 080515Z 15009KT 25/11 A3007 RMK A01 T02490112  RH  042%=      5-min Rain = 0
KEA1 080516Z 15009KT 25/11 A3007 RMK A01 T02490112  RH  042%=      5-min Rain = 0
KEA1 080517Z 15010KT 25/11 A3007 RMK A01 T02490111  RH  042%=      5-min Rain = 0
KEA1 080518Z 15009KT 25/11 A3007 RMK A01 T02490111  RH  042%=      5-min Rain = 0
KEA1 080519Z 15009KT 25/11 A3007 RMK A01 T02490112  RH  042%=      5-min Rain = 0
KEA1 080520Z 15010KT 25/11 A3007 RMK A01 T02490112  RH  042%=      5-min Rain = 0
KEA1 080521Z 15009KT 25/11 A3007 RMK A01 T02490112  RH  042%=      5-min Rain = 0
KEA1 080522Z 15010KT 25/11 A3007 RMK A01 T02490112  RH  042%=      5-min Rain = 0
KEA1 080523Z 15009KT 25/11 A3007 RMK A01 T02500112  RH  042%=      5-min Rain = 0
KEA1 080524Z 15009KT 25/11 A3007 RMK A01 T02500111  RH  042%=      5-min Rain = 0
KEA1 080525Z 16010KT 25/11 A3007 RMK A01 T02500112  RH  042%=      5-min Rain = 0
KEA1 080526Z 16010KT 25/11 A3007 RMK A01 T02500111  RH  042%=      5-min Rain = 0
KEA1 080527Z 16010KT 25/11 A3007 RMK A01 T02510111  RH  041%=      5-min Rain = 0
KEA1 080528Z 16010KT 25/11 A3007 RMK A01 T02530112  RH  041%=      5-min Rain = 0
KEA1 080529Z 16011KT 25/11 A3007 RMK A01 T02530112  RH  041%=      5-min Rain = 0
KEA1 080530Z 16011KT 25/11 A3007 RMK A01 T02540112  RH  041%=      5-min Rain = 0
KEA1 080531Z 16010KT 25/11 A3007 RMK A01 T02540111  RH  041%=      5-min Rain = 0
KEA1 080532Z 16010KT 25/11 A3007 RMK A01 T02540111  RH  041%=      5-min Rain = 0
KEA1 080533Z 16010KT 25/11 A3007 RMK A01 T02540111  RH  041%=      5-min Rain = 0
KEA1 080534Z 16009KT 26/11 A3007 RMK A01 T02550112  RH  041%=      5-min Rain = 0
KEA1 080535Z 16009KT 26/11 A3007 RMK A01 T02550111  RH  041%=      5-min Rain = 0
KEA1 080536Z 16010KT 26/11 A3007 RMK A01 T02550112  RH  041%=      5-min Rain = 0
KEA1 080537Z 16009KT 25/11 A3007 RMK A01 T02540111  RH  041%=      5-min Rain = 0
KEA1 080538Z 16009KT 25/11 A3007 RMK A01 T02540112  RH  041%=      5-min Rain = 0
KEA1 080539Z 16010KT 25/11 A3007 RMK A01 T02540112  RH  041%=      5-min Rain = 0
KEA1 080540Z 16009KT 25/11 A3007 RMK A01 T02540112  RH  041%=      5-min Rain = 0
KEA1 080541Z 16010KT 25/11 A3007 RMK A01 T02540112  RH  041%=      5-min Rain = 0
KEA1 080542Z 16010KT 25/11 A3007 RMK A01 T02530112  RH  041%=      5-min Rain = 0
KEA1 080543Z 16010KT 25/11 A3007 RMK A01 T02540112  RH  041%=      5-min Rain = 0
KEA1 080544Z 16010KT 25/11 A3007 RMK A01 T02530112  RH  041%=      5-min Rain = 0
KEA1 080545Z 16010KT 25/11 A3007 RMK A01 T02520112  RH  041%=      5-min Rain = 0
KEA1 080546Z 16009KT 25/11 A3007 RMK A01 T02520112  RH  041%=      5-min Rain = 0
KEA1 080547Z 16009KT 25/11 A3007 RMK A01 T02520112  RH  042%=      5-min Rain = 0
KEA1 080548Z 16009KT 25/11 A3007 RMK A01 T02510112  RH  042%=      5-min Rain = 0
KEA1 080549Z 16009KT 25/11 A3007 RMK A01 T02510112  RH  042%=      5-min Rain = 0
KEA1 080550Z 15009KT 25/11 A3007 RMK A01 T02510112  RH  042%=      5-min Rain = 0
KEA1 080551Z 16009KT 25/11 A3007 RMK A01 T02500112  RH  042%=      5-min Rain = 0
KEA1 080552Z 16009KT 25/11 A3008 RMK A01 T02500113  RH  042%=      5-min Rain = 0
KEA1 080553Z 15009KT 25/11 A3008 RMK A01 T02490113  RH  042%=      5-min Rain = 0
KEA1 080554Z 15009KT 25/11 A3008 RMK A01 T02490112  RH  042%=      5-min Rain = 0
KEA1 080555Z 15008KT 25/11 A3008 RMK A01 T02480113  RH  043%=      5-min Rain = 0
KEA1 080556Z 15008KT 25/11 A3008 RMK A01 T02480113  RH  043%=      5-min Rain = 0
KEA1 080557Z 15008KT 25/11 A3008 RMK A01 T02470113  RH  043%=      5-min Rain = 0
KEA1 080558Z 15009KT 25/11 A3008 RMK A01 T02470112  RH  043%=      5-min Rain = 0
KEA1 080559Z 15008KT 25/11 A3008 RMK A01 T02460113  RH  043%=      5-min Rain = 0
KEA1 080600Z 15008KT 25/11 A3008 RMK A01 T02460113  RH  043%=      5-min Rain = 0
KEA1 080601Z 15009KT 25/11 A3008 RMK A01 T02460113  RH  043%=      5-min Rain = 0
KEA1 080602Z 15008KT 25/11 A3008 RMK A01 T02450113  RH  043%=      5-min Rain = 0
KEA1 080603Z 16009KT 25/11 A3008 RMK A01 T02450113  RH  044%=      5-min Rain = 0
KEA1 080604Z 16009KT 24/11 A3008 RMK A01 T02440113  RH  044%=      5-min Rain = 0
KEA1 080605Z 15008KT 24/11 A3008 RMK A01 T02430113  RH  044%=      5-min Rain = 0
KEA1 080606Z 16008KT 24/11 A3008 RMK A01 T02430113  RH  044%=      5-min Rain = 0
KEA1 080607Z 16008KT 24/11 A3008 RMK A01 T02420113  RH  044%=      5-min Rain = 0
KEA1 080608Z 16009KT 24/11 A3008 RMK A01 T02410113  RH  044%=      5-min Rain = 0
KEA1 080609Z 16009KT 24/11 A3008 RMK A01 T02410113  RH  045%=      5-min Rain = 0
KEA1 080610Z 16009KT 24/11 A3008 RMK A01 T02410113  RH  045%=      5-min Rain = 0
KEA1 080611Z 16008KT 24/11 A3008 RMK A01 T02410114  RH  045%=      5-min Rain = 0
KEA1 080612Z 16009KT 24/11 A3007 RMK A01 T02410114  RH  045%=      5-min Rain = 0
KEA1 080613Z 16008KT 24/11 A3007 RMK A01 T02400113  RH  045%=      5-min Rain = 0
KEA1 080614Z 16009KT 24/11 A3007 RMK A01 T02400114  RH  045%=      5-min Rain = 0
KEA1 080615Z 16009KT 24/11 A3007 RMK A01 T02390113  RH  045%=      5-min Rain = 0
KEA1 080616Z 16009KT 24/11 A3007 RMK A01 T02400113  RH  045%=      5-min Rain = 0
KEA1 080617Z 16009KT 24/11 A3007 RMK A01 T02400114  RH  045%=      5-min Rain = 0
KEA1 080618Z 16009KT 24/11 A3007 RMK A01 T02400114  RH  045%=      5-min Rain = 0
KEA1 080619Z 16009KT 24/11 A3007 RMK A01 T02390114  RH  045%=      5-min Rain = 0
KEA1 080620Z 16009KT 24/11 A3007 RMK A01 T02390114  RH  045%=      5-min Rain = 0
KEA1 080621Z 16009KT 24/11 A3007 RMK A01 T02390114  RH  045%=      5-min Rain = 0
KEA1 080622Z 16009KT 24/11 A3007 RMK A01 T02390114  RH  045%=      5-min Rain = 0
KEA1 080623Z 16008KT 24/11 A3008 RMK A01 T02400114  RH  045%=      5-min Rain = 0
KEA1 080624Z 16009KT 24/11 A3008 RMK A01 T02400114  RH  045%=      5-min Rain = 0
KEA1 080625Z 16008KT 24/11 A3008 RMK A01 T02390113  RH  045%=      5-min Rain = 0
KEA1 080626Z 16009KT 24/11 A3008 RMK A01 T02400114  RH  045%=      5-min Rain = 0
KEA1 080627Z 16009KT 24/11 A3008 RMK A01 T02400114  RH  045%=      5-min Rain = 0
KEA1 080628Z 16009KT 24/11 A3008 RMK A01 T02400114  RH  045%=      5-min Rain = 0
KEA1 080629Z 16008KT 24/11 A3008 RMK A01 T02400114  RH  045%=      5-min Rain = 0
KEA1 080630Z 16008KT 24/11 A3008 RMK A01 T02400114  RH  045%=      5-min Rain = 0
KEA1 080631Z 16009KT 24/11 A3008 RMK A01 T02400114  RH  045%=      5-min Rain = 0
KEA1 080632Z 16009KT 24/11 A3008 RMK A01 T02390114  RH  045%=      5-min Rain = 0
KEA1 080633Z 16008KT 24/11 A3008 RMK A01 T02400114  RH  045%=      5-min Rain = 0
KEA1 080634Z 16008KT 24/11 A3008 RMK A01 T02400114  RH  045%=      5-min Rain = 0
KEA1 080635Z 16008KT 24/11 A3008 RMK A01 T02400114  RH  045%=      5-min Rain = 0
KEA1 080636Z 16008KT 24/11 A3008 RMK A01 T02400114  RH  045%=      5-min Rain = 0
KEA1 080637Z 16008KT 24/12 A3008 RMK A01 T02410115  RH  045%=      5-min Rain = 0
KEA1 080638Z 16008KT 24/11 A3008 RMK A01 T02400114  RH  045%=      5-min Rain = 0
KEA1 080639Z 16008KT 24/12 A3008 RMK A01 T02400115  RH  045%=      5-min Rain = 0
KEA1 080640Z 16008KT 24/12 A3008 RMK A01 T02400115  RH  045%=      5-min Rain = 0
KEA1 080641Z 16008KT 24/12 A3008 RMK A01 T02400115  RH  045%=      5-min Rain = 0
KEA1 080642Z 16008KT 24/12 A3008 RMK A01 T02390115  RH  046%=      5-min Rain = 0
KEA1 080643Z 16007KT 24/12 A3008 RMK A01 T02390115  RH  046%=      5-min Rain = 0
KEA1 080644Z 16008KT 24/12 A3008 RMK A01 T02380115  RH  046%=      5-min Rain = 0
KEA1 080645Z 16008KT 24/12 A3008 RMK A01 T02370115  RH  046%=      5-min Rain = 0
KEA1 080646Z 16007KT 24/12 A3008 RMK A01 T02370116  RH  046%=      5-min Rain = 0
KEA1 080647Z 16007KT 24/12 A3008 RMK A01 T02370116  RH  046%=      5-min Rain = 0
KEA1 080648Z 16007KT 24/12 A3008 RMK A01 T02370116  RH  046%=      5-min Rain = 0
KEA1 080649Z 16007KT 24/12 A3008 RMK A01 T02370116  RH  046%=      5-min Rain = 0
KEA1 080650Z 17007KT 24/12 A3008 RMK A01 T02370116  RH  046%=      5-min Rain = 0
KEA1 080651Z 17007KT 24/12 A3008 RMK A01 T02370116  RH  047%=      5-min Rain = 0
KEA1 080652Z 17007KT 24/12 A3008 RMK A01 T02360116  RH  047%=      5-min Rain = 0
KEA1 080653Z 17008KT 24/12 A3008 RMK A01 T02360116  RH  047%=      5-min Rain = 0
KEA1 080654Z 17009KT 24/12 A3008 RMK A01 T02370116  RH  047%=      5-min Rain = 0
KEA1 080655Z 17008KT 24/12 A3008 RMK A01 T02370116  RH  046%=      5-min Rain = 0
KEA1 080656Z 17008KT 24/12 A3008 RMK A01 T02380116  RH  046%=      5-min Rain = 0
KEA1 080657Z 17008KT 24/12 A3008 RMK A01 T02370116  RH  047%=      5-min Rain = 0
KEA1 080658Z 17008KT 24/12 A3008 RMK A01 T02360117  RH  047%=      5-min Rain = 0
KEA1 080659Z 17009KT 24/12 A3008 RMK A01 T02360116  RH  047%=      5-min Rain = 0
KEA1 080700Z 17008KT 24/12 A3008 RMK A01 T02350116  RH  047%=      5-min Rain = 0
KEA1 080701Z 17008KT 24/12 A3008 RMK A01 T02360117  RH  047%=      5-min Rain = 0
KEA1 080702Z 17008KT 24/12 A3008 RMK A01 T02360117  RH  047%=      5-min Rain = 0
KEA1 080703Z 17008KT 24/12 A3008 RMK A01 T02350117  RH  047%=      5-min Rain = 0
KEA1 080704Z 17009KT 24/12 A3008 RMK A01 T02350117  RH  047%=      5-min Rain = 0
KEA1 080705Z 17009KT 24/12 A3008 RMK A01 T02350117  RH  047%=      5-min Rain = 0
KEA1 080706Z 17008KT 24/12 A3008 RMK A01 T02350117  RH  047%=      5-min Rain = 0
KEA1 080707Z 18008KT 24/12 A3008 RMK A01 T02350117  RH  047%=      5-min Rain = 0
KEA1 080708Z 17008KT 24/12 A3008 RMK A01 T02350118  RH  048%=      5-min Rain = 0
KEA1 080709Z 17009KT 24/12 A3008 RMK A01 T02350118  RH  048%=      5-min Rain = 0
KEA1 080710Z 18008KT 24/12 A3008 RMK A01 T02350118  RH  048%=      5-min Rain = 0
KEA1 080711Z 18008KT 24/12 A3009 RMK A01 T02350118  RH  048%=      5-min Rain = 0
KEA1 080712Z 18008KT 24/12 A3009 RMK A01 T02350119  RH  048%=      5-min Rain = 0
KEA1 080713Z 18008KT 23/12 A3009 RMK A01 T02340119  RH  048%=      5-min Rain = 0
KEA1 080714Z 18008KT 23/12 A3009 RMK A01 T02340119  RH  048%=      5-min Rain = 0
KEA1 080715Z 18007KT 23/12 A3009 RMK A01 T02340119  RH  048%=      5-min Rain = 0
KEA1 080716Z 19008KT 23/12 A3009 RMK A01 T02340119  RH  048%=      5-min Rain = 0
KEA1 080717Z 19008KT 23/12 A3009 RMK A01 T02340119  RH  048%=      5-min Rain = 0
KEA1 080718Z 19008KT 23/12 A3009 RMK A01 T02340119  RH  048%=      5-min Rain = 0
KEA1 080719Z 19007KT 24/12 A3009 RMK A01 T02350119  RH  048%=      5-min Rain = 0
KEA1 080720Z 18007KT 24/12 A3009 RMK A01 T02350119  RH  048%=      5-min Rain = 0
KEA1 080721Z 18007KT 24/12 A301 RMK A01 T02350120  RH  048%=      5-min Rain = 0
KEA1 080722Z 18007KT 24/12 A3009 RMK A01 T02350120  RH  048%=      5-min Rain = 0
KEA1 080723Z 18007KT 24/12 A301 RMK A01 T02350120  RH  048%=      5-min Rain = 0
KEA1 080724Z 18008KT 24/12 A301 RMK A01 T02350120  RH  048%=      5-min Rain = 0
KEA1 080725Z 18008KT 23/12 A301 RMK A01 T02340120  RH  049%=      5-min Rain = 0
KEA1 080726Z 18008KT 23/12 A301 RMK A01 T02340120  RH  049%=      5-min Rain = 0
KEA1 080727Z 18008KT 23/12 A301 RMK A01 T02340120  RH  049%=      5-min Rain = 0
KEA1 080728Z 18007KT 23/12 A301 RMK A01 T02340120  RH  049%=      5-min Rain = 0
KEA1 080729Z 18008KT 24/12 A301 RMK A01 T02350121  RH  049%=      5-min Rain = 0
KEA1 080730Z 18009KT 24/12 A301 RMK A01 T02350121  RH  049%=      5-min Rain = 0
KEA1 080731Z 18008KT 24/12 A301 RMK A01 T02360121  RH  048%=      5-min Rain = 0
KEA1 080732Z 18009KT 24/12 A301 RMK A01 T02370121  RH  048%=      5-min Rain = 0
KEA1 080733Z 19009KT 24/12 A301 RMK A01 T02370121  RH  048%=      5-min Rain = 0
KEA1 080734Z 19009KT 24/12 A301 RMK A01 T02380122  RH  048%=      5-min Rain = 0
KEA1 080735Z 18009KT 24/12 A301 RMK A01 T02390122  RH  048%=      5-min Rain = 0
KEA1 080736Z 19009KT 24/12 A301 RMK A01 T02390122  RH  048%=      5-min Rain = 0
KEA1 080737Z 19009KT 24/12 A301 RMK A01 T02390122  RH  048%=      5-min Rain = 0
KEA1 080738Z 19009KT 24/12 A301 RMK A01 T02390122  RH  048%=      5-min Rain = 0
KEA1 080739Z 19009KT 24/12 A301 RMK A01 T02390122  RH  048%=      5-min Rain = 0
KEA1 080740Z 19009KT 24/12 A301 RMK A01 T02400123  RH  048%=      5-min Rain = 0
KEA1 080741Z 19009KT 24/12 A3011 RMK A01 T02400123  RH  048%=      5-min Rain = 0
KEA1 080742Z 19008KT 24/12 A3011 RMK A01 T02410123  RH  048%=      5-min Rain = 0
KEA1 080743Z 19009KT 24/12 A3011 RMK A01 T02410123  RH  047%=      5-min Rain = 0
KEA1 080744Z 19009KT 24/12 A3011 RMK A01 T02420123  RH  047%=      5-min Rain = 0
KEA1 080745Z 19009KT 24/12 A3011 RMK A01 T02420123  RH  047%=      5-min Rain = 0
KEA1 080746Z 19008KT 24/12 A3011 RMK A01 T02420123  RH  047%=      5-min Rain = 0
KEA1 080747Z 19008KT 24/12 A3011 RMK A01 T02430124  RH  047%=      5-min Rain = 0
KEA1 080748Z 19009KT 24/12 A3011 RMK A01 T02430123  RH  047%=      5-min Rain = 0
KEA1 080749Z 19008KT 24/12 A3011 RMK A01 T02430124  RH  047%=      5-min Rain = 0
KEA1 080750Z 19009KT 24/12 A3011 RMK A01 T02430124  RH  047%=      5-min Rain = 0
KEA1 080751Z 19009KT 24/12 A3011 RMK A01 T02430124  RH  047%=      5-min Rain = 0
KEA1 080752Z 19009KT 24/12 A3011 RMK A01 T02440124  RH  047%=      5-min Rain = 0
KEA1 080753Z 19010KT 24/12 A3011 RMK A01 T02440124  RH  047%=      5-min Rain = 0
KEA1 080754Z 20009KT 25/12 A3011 RMK A01 T02450124  RH  047%=      5-min Rain = 0
KEA1 080755Z 19010KT 25/12 A3011 RMK A01 T02460124  RH  047%=      5-min Rain = 0
KEA1 080756Z 19010KT 25/13 A3011 RMK A01 T02460125  RH  047%=      5-min Rain = 0
KEA1 080757Z 20009KT 25/13 A3011 RMK A01 T02460125  RH  047%=      5-min Rain = 0
KEA1 080758Z 20010KT 25/13 A3011 RMK A01 T02460125  RH  047%=      5-min Rain = 0
KEA1 080759Z 20010KT 25/13 A3011 RMK A01 T02460125  RH  047%=      5-min Rain = 0
KEA1 080800Z 20010KT 25/13 A3011 RMK A01 T02470125  RH  047%=      5-min Rain = 0
KEA1 080801Z 20009KT 25/13 A3012 RMK A01 T02480126  RH  047%=      5-min Rain = 0
KEA1 080802Z 21009KT 25/13 A3012 RMK A01 T02480126  RH  047%=      5-min Rain = 0
KEA1 080803Z 22007KT 25/13 A3012 RMK A01 T02480126  RH  047%=      5-min Rain = 0
KEA1 080804Z 23007KT 25/13 A3012 RMK A01 T02480126  RH  047%=      5-min Rain = 0
KEA1 080805Z 24008KT 25/13 A3013 RMK A01 T02490127  RH  047%=      5-min Rain = 0
KEA1 080806Z 26009KT 25/13 A3013 RMK A01 T02500131  RH  048%=      5-min Rain = 0
KEA1 080807Z 31010KT 25/13 A3013 RMK A01 T02530133  RH  048%=      5-min Rain = 0
KEA1 080808Z 33010KT 25/13 A3014 RMK A01 T02520130  RH  047%=      5-min Rain = 0
KEA1 080809Z 32009KT 25/13 A3014 RMK A01 T02480126  RH  047%=      5-min Rain = 0
KEA1 080810Z 33008KT 25/13 A3014 RMK A01 T02450126  RH  047%=      5-min Rain = 0
KEA1 080811Z 33008KT 24/13 A3014 RMK A01 T02430126  RH  048%=      5-min Rain = 0
KEA1 080812Z 32005KT 24/13 A3014 RMK A01 T02410126  RH  049%=      5-min Rain = 0
KEA1 080813Z 32005KT 24/13 A3014 RMK A01 T02400126  RH  049%=      5-min Rain = 0
KEA1 080814Z 32006KT 24/13 A3014 RMK A01 T02400126  RH  049%=      5-min Rain = 0
KEA1 080815Z 32006KT 24/13 A3014 RMK A01 T02400125  RH  049%=      5-min Rain = 0
KEA1 080816Z 31007KT 24/13 A3014 RMK A01 T02410125  RH  048%=      5-min Rain = 0
KEA1 080817Z 32009G14KT 24/13 A3014 RMK A01 T02430125  RH  048%=      5-min Rain = 0
KEA1 080818Z 33012KT 25/13 A3013 RMK A01 T02450125  RH  047%=      5-min Rain = 0
KEA1 080819Z 32009KT 25/13 A3013 RMK A01 T02510126  RH  046%=      5-min Rain = 0
KEA1 080820Z 26009G18KT 25/13 A3014 RMK A01 T02540126  RH  045%=      5-min Rain = 0
KEA1 080821Z 25017G24KT 26/13 A3014 RMK A01 T02560126  RH  044%=      5-min Rain = 0
KEA1 080822Z 24014G24KT 26/13 A3014 RMK A01 T02600128  RH  044%=      5-min Rain = 0
KEA1 080823Z 35003KT 27/13 A3014 RMK A01 T02650130  RH  043%=      5-min Rain = 0
KEA1 080824Z 27010G16KT 27/13 A3014 RMK A01 T02660128  RH  042%=      5-min Rain = 0
KEA1 080825Z 25012KT 27/13 A3015 RMK A01 T02650127  RH  042%=      5-min Rain = 0
KEA1 080826Z 30013KT 26/13 A3015 RMK A01 T02630126  RH  043%=      5-min Rain = 0
KEA1 080827Z 31015KT 26/13 A3015 RMK A01 T02620126  RH  043%=      5-min Rain = 0
KEA1 080828Z 31013KT 26/13 A3016 RMK A01 T02620126  RH  043%=      5-min Rain = 0
KEA1 080829Z 29013KT 26/13 A3016 RMK A01 T02620126  RH  043%=      5-min Rain = 0
KEA1 080830Z 31011KT 26/13 A3016 RMK A01 T02620127  RH  043%=      5-min Rain = 0
KEA1 080831Z 30012KT 26/13 A3016 RMK A01 T02630128  RH  043%=      5-min Rain = 0
KEA1 080832Z 29013KT 26/13 A3016 RMK A01 T02640128  RH  043%=      5-min Rain = 0
KEA1 080833Z 31014KT 26/13 A3016 RMK A01 T02640129  RH  043%=      5-min Rain = 0
KEA1 080834Z 32015KT 26/13 A3016 RMK A01 T02640128  RH  043%=      5-min Rain = 0
KEA1 080835Z 32013KT 26/13 A3016 RMK A01 T02640127  RH  043%=      5-min Rain = 0
KEA1 080836Z 33013KT 26/13 A3016 RMK A01 T02630127  RH  043%=      5-min Rain = 0
KEA1 080837Z 32012KT 26/13 A3016 RMK A01 T02610127  RH  043%=      5-min Rain = 0
KEA1 080838Z 32014KT 26/13 A3017 RMK A01 T02600127  RH  044%=      5-min Rain = 0
KEA1 080839Z 32009KT 26/13 A3017 RMK A01 T02590128  RH  044%=      5-min Rain = 0
KEA1 080840Z 31009KT 26/13 A3017 RMK A01 T02580127  RH  044%=      5-min Rain = 0
KEA1 080841Z 32011KT 26/13 A3017 RMK A01 T02550126  RH  044%=      5-min Rain = 0
KEA1 080842Z 32012KT 25/13 A3017 RMK A01 T02530126  RH  045%=      5-min Rain = 0
KEA1 080843Z 32009KT 25/13 A3017 RMK A01 T02530126  RH  045%=      5-min Rain = 0
KEA1 080844Z 33010KT 25/13 A3017 RMK A01 T02530127  RH  046%=      5-min Rain = 0
KEA1 080845Z 33010KT 25/13 A3017 RMK A01 T02510126  RH  046%=      5-min Rain = 0
KEA1 080846Z 34011KT 25/13 A3017 RMK A01 T02500125  RH  046%=      5-min Rain = 0
KEA1 080847Z 34010KT 25/12 A3018 RMK A01 T02480124  RH  046%=      5-min Rain = 0
KEA1 080848Z 34012KT 25/12 A3018 RMK A01 T02460123  RH  046%=      5-min Rain = 0
KEA1 080849Z 34012KT 24/12 A3018 RMK A01 T02440121  RH  046%=      5-min Rain = 0
KEA1 080850Z 34016KT 24/12 A3018 RMK A01 T02430120  RH  046%=      5-min Rain = 0
KEA1 080851Z 34016KT 24/12 A3018 RMK A01 T02420119  RH  046%=      5-min Rain = 0
KEA1 080852Z 34015G20KT 24/12 A3018 RMK A01 T02410119  RH  046%=      5-min Rain = 0
KEA1 080853Z 34013KT 24/12 A3018 RMK A01 T02400119  RH  046%=      5-min Rain = 0
KEA1 080854Z 34014KT 24/12 A3018 RMK A01 T02400118  RH  047%=      5-min Rain = 0
KEA1 080855Z 33014KT 24/12 A3018 RMK A01 T02390118  RH  047%=      5-min Rain = 0
KEA1 080856Z 33016KT 24/12 A3018 RMK A01 T02390119  RH  047%=      5-min Rain = 0
KEA1 080857Z 33016KT 24/12 A3018 RMK A01 T02390119  RH  047%=      5-min Rain = 0
KEA1 080858Z 33017KT 24/12 A3018 RMK A01 T02380119  RH  047%=      5-min Rain = 0
KEA1 080859Z 33019G24KT 24/12 A3018 RMK A01 T02380121  RH  048%=      5-min Rain = 0
KEA1 080900Z 34023KT 24/12 A3018 RMK A01 T02360121  RH  048%=      5-min Rain = 0
KEA1 080901Z 34019KT 24/12 A3018 RMK A01 T02350122  RH  049%=      5-min Rain = 0
KEA1 080902Z 33017KT 23/12 A3019 RMK A01 T02340122  RH  049%=      5-min Rain = 0
KEA1 080903Z 33014KT 23/12 A3018 RMK A01 T02330121  RH  049%=      5-min Rain = 0
KEA1 080904Z 33012KT 23/12 A3018 RMK A01 T02320122  RH  050%=      5-min Rain = 0
KEA1 080905Z 33014KT 23/12 A3018 RMK A01 T02320122  RH  050%=      5-min Rain = 0
KEA1 080906Z 33015G20KT 23/12 A3018 RMK A01 T02310122  RH  050%=      5-min Rain = 0
KEA1 080907Z 34017G22KT 23/12 A3018 RMK A01 T02300122  RH  050%=      5-min Rain = 0
KEA1 080908Z 33016KT 23/12 A3018 RMK A01 T02310122  RH  051%=      5-min Rain = 0
KEA1 080909Z 33013KT 23/13 A3018 RMK A01 T02300125  RH  052%=      5-min Rain = 0
KEA1 080910Z 33016G21KT 23/13 A3018 RMK A01 T02270128  RH  053%=      5-min Rain = 0
KEA1 080911Z 33019KT 23/13 A3019 RMK A01 T02250126  RH  054%=      5-min Rain = 0
KEA1 080912Z 33020KT 23/13 A3019 RMK A01 T02250125  RH  053%=      5-min Rain = 0
KEA1 080913Z 32016KT 23/13 A3019 RMK A01 T02250125  RH  053%=      5-min Rain = 0
KEA1 080914Z 33015KT 23/13 A3019 RMK A01 T02250126  RH  054%=      5-min Rain = 0
KEA1 080915Z 33011KT 23/13 A3019 RMK A01 T02250126  RH  054%=      5-min Rain = 0
KEA1 080916Z 32013KT 22/13 A3019 RMK A01 T02240128  RH  055%=      5-min Rain = 0
KEA1 080917Z 32014KT 22/13 A3019 RMK A01 T02230127  RH  055%=      5-min Rain = 0
KEA1 080918Z 32012KT 22/13 A3019 RMK A01 T02230128  RH  055%=      5-min Rain = 0
KEA1 080919Z 32010KT 22/13 A3018 RMK A01 T02220128  RH  055%=      5-min Rain = 0
KEA1 080920Z 32010KT 22/13 A3018 RMK A01 T02220129  RH  055%=      5-min Rain = 0
KEA1 080921Z 32009KT 22/13 A3018 RMK A01 T02210130  RH  056%=      5-min Rain = 0
KEA1 080922Z 32008KT 22/13 A3018 RMK A01 T02190131  RH  057%=      5-min Rain = 0
KEA1 080923Z 34011KT 22/13 A3018 RMK A01 T02170132  RH  058%=      5-min Rain = 0
KEA1 080924Z 34011KT 22/13 A3018 RMK A01 T02170132  RH  058%=      5-min Rain = 0
KEA1 080925Z 34011KT 22/13 A3018 RMK A01 T02160132  RH  059%=      5-min Rain = 0
KEA1 080926Z 34009KT 22/13 A3018 RMK A01 T02150132  RH  059%=      5-min Rain = 0
KEA1 080927Z 33009KT 22/13 A3018 RMK A01 T02150132  RH  059%=      5-min Rain = 0
KEA1 080928Z 33010KT 21/13 A3018 RMK A01 T02140132  RH  059%=      5-min Rain = 0
KEA1 080929Z 33011KT 21/13 A3018 RMK A01 T02140132  RH  059%=      5-min Rain = 0
KEA1 080930Z 34011KT 21/13 A3018 RMK A01 T02140131  RH  059%=      5-min Rain = 0
KEA1 080931Z 34009KT 22/13 A3018 RMK A01 T02150132  RH  059%=      5-min Rain = 0
KEA1 080932Z 36013KT 21/13 A3018 RMK A01 T02140130  RH  059%=      5-min Rain = 0
KEA1 080933Z 36013G20KT 22/13 A3017 RMK A01 T02150130  RH  059%=      5-min Rain = 0
KEA1 080934Z 36020G26KT 22/13 A3017 RMK A01 T02150125  RH  057%=      5-min Rain = 0
KEA1 080935Z 35017KT 22/13 A3017 RMK A01 T02200125  RH  055%=      5-min Rain = 0
KEA1 080936Z 35019KT 22/13 A3017 RMK A01 T02200126  RH  055%=      5-min Rain = 0
KEA1 080937Z 35017KT 22/13 A3017 RMK A01 T02200126  RH  055%=      5-min Rain = 0
KEA1 080938Z 35014KT 22/13 A3017 RMK A01 T02190127  RH  056%=      5-min Rain = 0
KEA1 080939Z 35014KT 22/13 A3017 RMK A01 T02180127  RH  056%=      5-min Rain = 0
KEA1 080940Z 35013KT 22/13 A3017 RMK A01 T02170127  RH  056%=      5-min Rain = 0
KEA1 080941Z 33009KT 22/13 A3017 RMK A01 T02170126  RH  056%=      5-min Rain = 0
KEA1 080942Z 33008KT 22/13 A3017 RMK A01 T02170127  RH  057%=      5-min Rain = 0
KEA1 080943Z 32010KT 22/13 A3017 RMK A01 T02170127  RH  057%=      5-min Rain = 0
KEA1 080944Z 32008KT 22/13 A3017 RMK A01 T02160127  RH  057%=      5-min Rain = 0
KEA1 080945Z 33010KT 22/13 A3017 RMK A01 T02160127  RH  057%=      5-min Rain = 0
KEA1 080946Z 34010KT 22/13 A3017 RMK A01 T02160127  RH  057%=      5-min Rain = 0
KEA1 080947Z 35007KT 22/13 A3017 RMK A01 T02150128  RH  057%=      5-min Rain = 0
KEA1 080948Z 35006KT 22/13 A3017 RMK A01 T02150128  RH  058%=      5-min Rain = 0
KEA1 080949Z 34006KT 21/13 A3017 RMK A01 T02140128  RH  058%=      5-min Rain = 0
KEA1 080950Z 35006KT 21/13 A3017 RMK A01 T02130128  RH  058%=      5-min Rain = 0
KEA1 080951Z 35006KT 21/13 A3016 RMK A01 T02120128  RH  059%=      5-min Rain = 0
KEA1 080952Z 36010KT 21/13 A3016 RMK A01 T02110128  RH  059%=      5-min Rain = 0
KEA1 080953Z 36011KT 21/13 A3016 RMK A01 T02110129  RH  059%=      5-min Rain = 0
KEA1 080954Z 36011KT 21/13 A3016 RMK A01 T02110128  RH  059%=      5-min Rain = 0
KEA1 080955Z 35009KT 21/13 A3016 RMK A01 T02110128  RH  059%=      5-min Rain = 0
KEA1 080956Z 35008KT 21/13 A3016 RMK A01 T02110129  RH  060%=      5-min Rain = 0
KEA1 080957Z 35010KT 21/13 A3016 RMK A01 T02110129  RH  060%=      5-min Rain = 0
KEA1 080958Z 01011KT 21/13 A3015 RMK A01 T02100129  RH  060%=      5-min Rain = 0
KEA1 080959Z 36012KT 21/13 A3015 RMK A01 T02100128  RH  060%=      5-min Rain = 0
KEA1 081000Z 36013KT 21/13 A3015 RMK A01 T02100128  RH  059%=      5-min Rain = 0
KEA1 081001Z 36012KT 21/13 A3015 RMK A01 T02110128  RH  059%=      5-min Rain = 0
KEA1 081002Z 00013KT 21/13 A3015 RMK A01 T02120128  RH  059%=      5-min Rain = 0
KEA1 081003Z 01012G17KT 21/13 A3015 RMK A01 T02110129  RH  059%=      5-min Rain = 0
KEA1 081004Z 01013KT 21/13 A3014 RMK A01 T02110128  RH  059%=      5-min Rain = 0
KEA1 081005Z 02013KT 21/13 A3014 RMK A01 T02120128  RH  059%=      5-min Rain = 0
KEA1 081006Z 02012KT 21/13 A3014 RMK A01 T02110128  RH  059%=      5-min Rain = 0
KEA1 081007Z 02012KT 21/13 A3014 RMK A01 T02110128  RH  059%=      5-min Rain = 0
KEA1 081008Z 02013KT 21/13 A3014 RMK A01 T02110128  RH  059%=      5-min Rain = 0
KEA1 081009Z 02013KT 21/13 A3013 RMK A01 T02110128  RH  059%=      5-min Rain = 0
KEA1 081010Z 01012KT 21/13 A3013 RMK A01 T02110128  RH  059%=      5-min Rain = 0
KEA1 081011Z 02012KT 21/13 A3013 RMK A01 T02110128  RH  059%=      5-min Rain = 0
KEA1 081012Z 02012KT 21/13 A3013 RMK A01 T02110128  RH  059%=      5-min Rain = 0
KEA1 081013Z 02012KT 21/13 A3013 RMK A01 T02110128  RH  059%=      5-min Rain = 0
KEA1 081014Z 02012KT 21/13 A3013 RMK A01 T02110128  RH  059%=      5-min Rain = 0
KEA1 081015Z 02012KT 21/13 A3013 RMK A01 T02100127  RH  059%=      5-min Rain = 0
KEA1 081016Z 03012KT 21/13 A3013 RMK A01 T02110128  RH  059%=      5-min Rain = 0
KEA1 081017Z 03011KT 21/13 A3013 RMK A01 T02110127  RH  059%=      5-min Rain = 0
KEA1 081018Z 03011KT 21/13 A3013 RMK A01 T02110127  RH  059%=      5-min Rain = 0
KEA1 081019Z 03011KT 21/13 A3013 RMK A01 T02110127  RH  059%=      5-min Rain = 0
KEA1 081020Z 03010KT 21/13 A3013 RMK A01 T02110127  RH  059%=      5-min Rain = 0
KEA1 081021Z 03010KT 21/13 A3013 RMK A01 T02110127  RH  059%=      5-min Rain = 0
KEA1 081022Z 03010KT 21/13 A3013 RMK A01 T02110127  RH  059%=      5-min Rain = 0
KEA1 081023Z 03010KT 21/13 A3013 RMK A01 T02110127  RH  059%=      5-min Rain = 0
KEA1 081024Z 04008KT 21/13 A3013 RMK A01 T02110127  RH  058%=      5-min Rain = 0
KEA1 081025Z 04008KT 21/13 A3013 RMK A01 T02120127  RH  058%=      5-min Rain = 0
KEA1 081026Z 04008KT 21/13 A3013 RMK A01 T02120127  RH  058%=      5-min Rain = 0
KEA1 081027Z 03009KT 21/13 A3013 RMK A01 T02120127  RH  058%=      5-min Rain = 0
KEA1 081028Z 03012KT 21/13 A3012 RMK A01 T02120127  RH  058%=      5-min Rain = 0
KEA1 081029Z 04012KT 21/13 A3012 RMK A01 T02130126  RH  058%=      5-min Rain = 0
KEA1 081030Z 04011KT 21/13 A3012 RMK A01 T02140127  RH  057%=      5-min Rain = 0
KEA1 081031Z 04012KT 22/13 A3012 RMK A01 T02150127  RH  057%=      5-min Rain = 0
KEA1 081032Z 04011KT 22/13 A3012 RMK A01 T02150126  RH  057%=      5-min Rain = 0
KEA1 081033Z 04010KT 22/13 A3012 RMK A01 T02160127  RH  057%=      5-min Rain = 0
KEA1 081034Z 06011KT 22/13 A3012 RMK A01 T02160127  RH  057%=      5-min Rain = 0
KEA1 081035Z 06011KT 22/13 A3011 RMK A01 T02160127  RH  057%=      5-min Rain = 0
KEA1 081036Z 06009KT 22/13 A3011 RMK A01 T02160127  RH  057%=      5-min Rain = 0
KEA1 081037Z 06009KT 22/13 A3011 RMK A01 T02150127  RH  057%=      5-min Rain = 0
KEA1 081038Z 06007KT 22/13 A3011 RMK A01 T02150127  RH  057%=      5-min Rain = 0
KEA1 081039Z 05006KT 21/13 A3011 RMK A01 T02140127  RH  058%=      5-min Rain = 0
KEA1 081040Z 04006KT 21/13 A3011 RMK A01 T02140127  RH  058%=      5-min Rain = 0
KEA1 081041Z 05005KT 21/13 A3011 RMK A01 T02130127  RH  058%=      5-min Rain = 0
KEA1 081042Z 05006KT 21/13 A3011 RMK A01 T02140128  RH  058%=      5-min Rain = 0
KEA1 081043Z 05006KT 21/13 A3011 RMK A01 T02130127  RH  058%=      5-min Rain = 0
KEA1 081044Z 06005KT 21/13 A3011 RMK A01 T02130127  RH  058%=      5-min Rain = 0
KEA1 081045Z 07004KT 21/13 A3011 RMK A01 T02130128  RH  058%=      5-min Rain = 0
KEA1 081046Z 06005KT 21/13 A3011 RMK A01 T02120127  RH  058%=      5-min Rain = 0
KEA1 081047Z 06004KT 21/13 A3011 RMK A01 T02120128  RH  058%=      5-min Rain = 0
KEA1 081048Z 05005KT 21/13 A3011 RMK A01 T02120127  RH  058%=      5-min Rain = 0
KEA1 081049Z 04005KT 21/13 A3011 RMK A01 T02120127  RH  058%=      5-min Rain = 0
KEA1 081050Z 03006KT 21/13 A3011 RMK A01 T02130127  RH  058%=      5-min Rain = 0
KEA1 081051Z 03006KT 21/13 A3011 RMK A01 T02120127  RH  058%=      5-min Rain = 0
KEA1 081052Z 03006KT 21/13 A3011 RMK A01 T02120128  RH  059%=      5-min Rain = 0
KEA1 081053Z 04007KT 21/13 A3011 RMK A01 T02120127  RH  058%=      5-min Rain = 0
KEA1 081054Z 05005KT 21/13 A3011 RMK A01 T02130127  RH  058%=      5-min Rain = 0
KEA1 081055Z 04005KT 21/13 A3011 RMK A01 T02140128  RH  058%=      5-min Rain = 0
KEA1 081056Z 05004KT 21/13 A3011 RMK A01 T02130128  RH  059%=      5-min Rain = 0
KEA1 081057Z 05004KT 21/13 A3011 RMK A01 T02110129  RH  059%=      5-min Rain = 0
KEA1 081058Z 06004KT 21/13 A3011 RMK A01 T02100129  RH  060%=      5-min Rain = 0
KEA1 081059Z 07004KT 21/13 A3011 RMK A01 T02100129  RH  060%=      5-min Rain = 0
KEA1 081100Z 08004KT 21/13 A3011 RMK A01 T02090128  RH  060%=      5-min Rain = 0
KEA1 081101Z 09003KT 21/13 A3011 RMK A01 T02080128  RH  060%=      5-min Rain = 0
KEA1 081102Z 09003KT 21/13 A3011 RMK A01 T02070129  RH  061%=      5-min Rain = 0
KEA1 081103Z 10004KT 21/13 A301 RMK A01 T02070128  RH  061%=      5-min Rain = 0
KEA1 081104Z 12004KT 21/13 A301 RMK A01 T02060129  RH  061%=      5-min Rain = 0
KEA1 081105Z 13004KT 21/13 A301 RMK A01 T02060129  RH  061%=      5-min Rain = 0
KEA1 081106Z 14005KT 20/13 A301 RMK A01 T02040129  RH  062%=      5-min Rain = 0
KEA1 081107Z 15006KT 20/13 A301 RMK A01 T02020129  RH  063%=      5-min Rain = 0
KEA1 081108Z 15006KT 20/13 A301 RMK A01 T02010128  RH  063%=      5-min Rain = 0
KEA1 081109Z 14005KT 20/13 A301 RMK A01 T02010128  RH  063%=      5-min Rain = 0
KEA1 081110Z 13005KT 20/13 A301 RMK A01 T02000128  RH  063%=      5-min Rain = 0
KEA1 081111Z 13005KT 20/13 A301 RMK A01 T02000128  RH  063%=      5-min Rain = 0
KEA1 081112Z 12005KT 20/13 A301 RMK A01 T02010128  RH  063%=      5-min Rain = 0
KEA1 081113Z 12006KT 20/13 A301 RMK A01 T02010127  RH  062%=      5-min Rain = 0
KEA1 081114Z 12006KT 20/13 A301 RMK A01 T02030127  RH  062%=      5-min Rain = 0
KEA1 081115Z 11007KT 20/13 A301 RMK A01 T02040128  RH  062%=      5-min Rain = 0
KEA1 081116Z 11007KT 20/13 A301 RMK A01 T02040127  RH  061%=      5-min Rain = 0
KEA1 081117Z 11006KT 20/13 A301 RMK A01 T02040128  RH  062%=      5-min Rain = 0
KEA1 081118Z 11006KT 20/13 A301 RMK A01 T02040128  RH  062%=      5-min Rain = 0
KEA1 081119Z 11006KT 20/13 A301 RMK A01 T02040128  RH  062%=      5-min Rain = 0
KEA1 081120Z 12005KT 20/13 A301 RMK A01 T02030128  RH  062%=      5-min Rain = 0
KEA1 081121Z 13004KT 20/13 A301 RMK A01 T02030128  RH  062%=      5-min Rain = 0
KEA1 081122Z 15003KT 20/13 A301 RMK A01 T02020128  RH  062%=      5-min Rain = 0
KEA1 081123Z 18002KT 20/13 A3011 RMK A01 T02000128  RH  063%=      5-min Rain = 0
KEA1 081124Z 20002KT 20/13 A3011 RMK A01 T01980127  RH  064%=      5-min Rain = 0
KEA1 081125Z 20002KT 20/13 A3011 RMK A01 T01960127  RH  064%=      5-min Rain = 0
KEA1 081126Z 19002KT 20/13 A3011 RMK A01 T01950127  RH  065%=      5-min Rain = 0
KEA1 081127Z 18001KT 19/13 A3011 RMK A01 T01940127  RH  065%=      5-min Rain = 0
KEA1 081128Z 16001KT 19/13 A3011 RMK A01 T01930127  RH  065%=      5-min Rain = 0
KEA1 081129Z 18001KT 20/13 A3011 RMK A01 T01950127  RH  065%=      5-min Rain = 0
KEA1 081130Z 21002KT 20/13 A3011 RMK A01 T01960127  RH  064%=      5-min Rain = 0
KEA1 081131Z 21004KT 20/13 A3011 RMK A01 T01960127  RH  065%=      5-min Rain = 0
KEA1 081132Z 20005KT 19/13 A3011 RMK A01 T01930126  RH  065%=      5-min Rain = 0
KEA1 081133Z 20006KT 19/13 A3011 RMK A01 T01910126  RH  066%=      5-min Rain = 0
KEA1 081134Z 20005KT 19/13 A3012 RMK A01 T01910126  RH  066%=      5-min Rain = 0
KEA1 081135Z 20003KT 19/13 A3012 RMK A01 T01900126  RH  066%=      5-min Rain = 0
KEA1 081136Z 25002KT 19/13 A3012 RMK A01 T01910127  RH  066%=      5-min Rain = 0
KEA1 081137Z 30002KT 19/13 A3012 RMK A01 T01900127  RH  067%=      5-min Rain = 0
KEA1 081138Z 31003KT 19/13 A3012 RMK A01 T01900128  RH  067%=      5-min Rain = 0
KEA1 081139Z 31004KT 19/13 A3012 RMK A01 T01900129  RH  068%=      5-min Rain = 0
KEA1 081140Z 31005KT 19/13 A3012 RMK A01 T01910131  RH  068%=      5-min Rain = 0
KEA1 081141Z 31006KT 19/13 A3012 RMK A01 T01920133  RH  068%=      5-min Rain = 0
KEA1 081142Z 31008KT 19/13 A3013 RMK A01 T01930133  RH  068%=      5-min Rain = 0
KEA1 081143Z 31007KT 19/13 A3013 RMK A01 T01920133  RH  069%=      5-min Rain = 0
KEA1 081144Z 31007KT 19/13 A3013 RMK A01 T01900133  RH  069%=      5-min Rain = 0
KEA1 081145Z 31005KT 19/13 A3013 RMK A01 T01890133  RH  070%=      5-min Rain = 0
KEA1 081146Z 31005KT 19/13 A3013 RMK A01 T01880132  RH  070%=      5-min Rain = 0
KEA1 081147Z 31004KT 19/13 A3013 RMK A01 T01880132  RH  070%=      5-min Rain = 0
KEA1 081148Z 28003KT 19/13 A3013 RMK A01 T01880132  RH  070%=      5-min Rain = 0
KEA1 081149Z 26004KT 19/13 A3013 RMK A01 T01880133  RH  070%=      5-min Rain = 0
KEA1 081150Z 24004KT 19/13 A3012 RMK A01 T01880133  RH  070%=      5-min Rain = 0
KEA1 081151Z 25003KT 19/13 A3012 RMK A01 T01870134  RH  071%=      5-min Rain = 0
KEA1 081152Z 25003KT 19/13 A3012 RMK A01 T01870134  RH  071%=      5-min Rain = 0
KEA1 081153Z 27003KT 19/14 A3013 RMK A01 T01880135  RH  071%=      5-min Rain = 0
KEA1 081154Z 30004KT 19/14 A3013 RMK A01 T01890136  RH  071%=      5-min Rain = 0
KEA1 081155Z 32006KT 19/14 A3013 RMK A01 T01890136  RH  071%=      5-min Rain = 0
KEA1 081156Z 32007KT 19/14 A3013 RMK A01 T01880135  RH  071%=      5-min Rain = 0
KEA1 081157Z 32007KT 19/14 A3014 RMK A01 T01880136  RH  072%=      5-min Rain = 0
KEA1 081158Z 32006KT 19/14 A3014 RMK A01 T01870135  RH  072%=      5-min Rain = 0
KEA1 081159Z 31005KT 19/14 A3014 RMK A01 T01870135  RH  072%=      5-min Rain = 0
KEA1 081200Z 28003KT 19/13 A3014 RMK A01 T01870134  RH  071%=      5-min Rain = 0
KEA1 081201Z 25004KT 19/13 A3013 RMK A01 T01880134  RH  071%=      5-min Rain = 0
KEA1 081202Z 25003KT 19/14 A3013 RMK A01 T01880135  RH  071%=      5-min Rain = 0
KEA1 081203Z 25003KT 19/14 A3013 RMK A01 T01890135  RH  071%=      5-min Rain = 0
KEA1 081204Z 25003KT 19/14 A3013 RMK A01 T01890136  RH  071%=      5-min Rain = 0
KEA1 081205Z 25003KT 19/14 A3013 RMK A01 T01890136  RH  071%=      5-min Rain = 0
KEA1 081206Z 25003KT 19/14 A3013 RMK A01 T01890136  RH  072%=      5-min Rain = 0
KEA1 081207Z 27003KT 19/14 A3013 RMK A01 T01890137  RH  071%=      5-min Rain = 0
KEA1 081208Z 28003KT 19/14 A3014 RMK A01 T01900136  RH  071%=      5-min Rain = 0
KEA1 081209Z 27002KT 19/14 A3014 RMK A01 T01900136  RH  071%=      5-min Rain = 0
KEA1 081210Z 27002KT 19/14 A3014 RMK A01 T01910137  RH  071%=      5-min Rain = 0
KEA1 081211Z 29002KT 19/14 A3014 RMK A01 T01910136  RH  071%=      5-min Rain = 0
KEA1 081212Z 30002KT 19/14 A3014 RMK A01 T01910137  RH  071%=      5-min Rain = 0
KEA1 081213Z 30003KT 19/14 A3014 RMK A01 T01910137  RH  071%=      5-min Rain = 0
KEA1 081214Z 31003KT 19/14 A3014 RMK A01 T01910137  RH  071%=      5-min Rain = 0
KEA1 081215Z 31003KT 19/14 A3014 RMK A01 T01910138  RH  071%=      5-min Rain = 0
KEA1 081216Z 31003KT 19/14 A3015 RMK A01 T01900138  RH  072%=      5-min Rain = 0
KEA1 081217Z 31003KT 19/14 A3015 RMK A01 T01900138  RH  072%=      5-min Rain = 0
KEA1 081218Z 32002KT 19/14 A3015 RMK A01 T01890138  RH  072%=      5-min Rain = 0
KEA1 081219Z 32002KT 19/14 A3015 RMK A01 T01890138  RH  072%=      5-min Rain = 0
KEA1 081220Z 33001KT 19/14 A3015 RMK A01 T01880138  RH  073%=      5-min Rain = 0
KEA1 081221Z 34002KT 19/14 A3015 RMK A01 T01870137  RH  073%=      5-min Rain = 0
KEA1 081222Z 33003KT 19/14 A3015 RMK A01 T01860138  RH  074%=      5-min Rain = 0
KEA1 081223Z 33003KT 19/14 A3015 RMK A01 T01850138  RH  074%=      5-min Rain = 0
KEA1 081224Z 32003KT 19/14 A3015 RMK A01 T01850138  RH  074%=      5-min Rain = 0
KEA1 081225Z 30002KT 19/14 A3015 RMK A01 T01850138  RH  074%=      5-min Rain = 0
KEA1 081226Z 29002KT 19/14 A3015 RMK A01 T01850137  RH  074%=      5-min Rain = 0
KEA1 081227Z 30002KT 19/14 A3015 RMK A01 T01850136  RH  073%=      5-min Rain = 0
KEA1 081228Z 32002KT 19/14 A3015 RMK A01 T01860136  RH  073%=      5-min Rain = 0
KEA1 081229Z 33002KT 19/14 A3015 RMK A01 T01860136  RH  073%=      5-min Rain = 0
KEA1 081230Z 33002KT 19/14 A3015 RMK A01 T01870136  RH  072%=      5-min Rain = 0
KEA1 081231Z 32002KT 19/14 A3015 RMK A01 T01870136  RH  072%=      5-min Rain = 0
KEA1 081232Z 29002KT 19/14 A3015 RMK A01 T01870136  RH  072%=      5-min Rain = 0
KEA1 081233Z 27002KT 19/14 A3015 RMK A01 T01870137  RH  073%=      5-min Rain = 0
KEA1 081234Z 22002KT 19/14 A3016 RMK A01 T01870139  RH  074%=      5-min Rain = 0
KEA1 081235Z 22001KT 19/14 A3016 RMK A01 T01860140  RH  074%=      5-min Rain = 0
KEA1 081236Z 28001KT 19/14 A3016 RMK A01 T01850140  RH  075%=      5-min Rain = 0
KEA1 081237Z 31002KT 19/14 A3016 RMK A01 T01850138  RH  074%=      5-min Rain = 0
KEA1 081238Z 33002KT 19/14 A3016 RMK A01 T01860138  RH  073%=      5-min Rain = 0
KEA1 081239Z 34002KT 19/14 A3016 RMK A01 T01870141  RH  074%=      5-min Rain = 0
KEA1 081240Z 34002KT 19/14 A3016 RMK A01 T01870140  RH  074%=      5-min Rain = 0
KEA1 081241Z 33001KT 19/14 A3016 RMK A01 T01860141  RH  075%=      5-min Rain = 0
KEA1 081242Z 32001KT 19/14 A3016 RMK A01 T01860140  RH  074%=      5-min Rain = 0
KEA1 081243Z 29001KT 19/14 A3016 RMK A01 T01860136  RH  073%=      5-min Rain = 0
KEA1 081244Z 27001KT 19/14 A3016 RMK A01 T01860138  RH  073%=      5-min Rain = 0
KEA1 081245Z 27002KT 19/14 A3016 RMK A01 T01870143  RH  075%=      5-min Rain = 0
KEA1 081246Z 28002KT 19/14 A3016 RMK A01 T01870144  RH  076%=      5-min Rain = 0
KEA1 081247Z 30002KT 19/14 A3016 RMK A01 T01880143  RH  075%=      5-min Rain = 0
KEA1 081248Z 29002KT 19/15 A3016 RMK A01 T01870145  RH  076%=      5-min Rain = 0
KEA1 081249Z 29002KT 19/15 A3016 RMK A01 T01870145  RH  076%=      5-min Rain = 0
KEA1 081250Z 29001KT 19/14 A3016 RMK A01 T01870142  RH  075%=      5-min Rain = 0
KEA1 081251Z 26001KT 19/15 A3016 RMK A01 T01880145  RH  076%=      5-min Rain = 0
KEA1 081252Z 26002KT 19/14 A3016 RMK A01 T01880144  RH  075%=      5-min Rain = 0
KEA1 081253Z 27003KT 19/14 A3016 RMK A01 T01880142  RH  074%=      5-min Rain = 0
KEA1 081254Z 28004KT 19/14 A3016 RMK A01 T01890142  RH  074%=      5-min Rain = 0
KEA1 081255Z 27005KT 19/15 A3016 RMK A01 T01900145  RH  075%=      5-min Rain = 0
KEA1 081256Z 27004KT 19/15 A3016 RMK A01 T01900145  RH  075%=      5-min Rain = 0
KEA1 081257Z 25003KT 19/15 A3016 RMK A01 T01910145  RH  075%=      5-min Rain = 0
KEA1 081258Z 24002KT 19/15 A3016 RMK A01 T01910146  RH  075%=      5-min Rain = 0
KEA1 081259Z 24002KT 19/15 A3016 RMK A01 T01920147  RH  075%=      5-min Rain = 0
KEA1 081300Z 25002KT 19/15 A3016 RMK A01 T01930147  RH  075%=      5-min Rain = 0
KEA1 081301Z 27002KT 19/15 A3016 RMK A01 T01930147  RH  074%=      5-min Rain = 0
KEA1 081302Z 31002KT 19/15 A3016 RMK A01 T01940145  RH  074%=      5-min Rain = 0
KEA1 081303Z 32003KT 20/15 A3016 RMK A01 T01950146  RH  073%=      5-min Rain = 0
KEA1 081304Z 33003KT 20/15 A3016 RMK A01 T01960148  RH  074%=      5-min Rain = 0
KEA1 081305Z 33003KT 20/15 A3016 RMK A01 T01970150  RH  074%=      5-min Rain = 0
KEA1 081306Z 31003KT 20/15 A3016 RMK A01 T01970151  RH  074%=      5-min Rain = 0
KEA1 081307Z 29003KT 20/15 A3016 RMK A01 T01990150  RH  074%=      5-min Rain = 0
KEA1 081308Z 29003KT 20/15 A3016 RMK A01 T01990149  RH  073%=      5-min Rain = 0
KEA1 081309Z 29002KT 20/15 A3016 RMK A01 T02000149  RH  072%=      5-min Rain = 0
KEA1 081310Z 27001KT 20/15 A3016 RMK A01 T02010148  RH  071%=      5-min Rain = 0
KEA1 081311Z 00000KT 20/15 A3016 RMK A01 T02020149  RH  072%=      5-min Rain = 0
KEA1 081312Z 00000KT 20/15 A3016 RMK A01 T02020147  RH  071%=      5-min Rain = 0
KEA1 081313Z 00000KT 20/15 A3016 RMK A01 T02030147  RH  070%=      5-min Rain = 0
KEA1 081314Z 00000KT 20/15 A3016 RMK A01 T02040147  RH  070%=      5-min Rain = 0
KEA1 081315Z 22000KT 20/15 A3016 RMK A01 T02040146  RH  069%=      5-min Rain = 0
KEA1 081316Z 16001KT 21/15 A3016 RMK A01 T02050146  RH  069%=      5-min Rain = 0
KEA1 081317Z 15001KT 21/15 A3016 RMK A01 T02060147  RH  069%=      5-min Rain = 0
KEA1 081318Z 14001KT 21/15 A3016 RMK A01 T02070147  RH  069%=      5-min Rain = 0
KEA1 081319Z 14000KT 21/15 A3016 RMK A01 T02080149  RH  069%=      5-min Rain = 0
KEA1 081320Z 00000KT 21/15 A3016 RMK A01 T02100149  RH  068%=      5-min Rain = 0
KEA1 081321Z 11001KT 21/15 A3016 RMK A01 T02110150  RH  068%=      5-min Rain = 0
KEA1 081322Z 14001KT 21/15 A3016 RMK A01 T02120149  RH  067%=      5-min Rain = 0
KEA1 081323Z 17001KT 21/15 A3016 RMK A01 T02140149  RH  067%=      5-min Rain = 0
KEA1 081324Z 18002KT 21/15 A3016 RMK A01 T02140147  RH  066%=      5-min Rain = 0
KEA1 081325Z 19000KT 21/15 A3016 RMK A01 T02130148  RH  066%=      5-min Rain = 0
KEA1 081326Z 19000KT 21/15 A3016 RMK A01 T02130148  RH  066%=      5-min Rain = 0
KEA1 081327Z 13001KT 21/15 A3016 RMK A01 T02140148  RH  066%=      5-min Rain = 0
KEA1 081328Z 14002KT 21/15 A3016 RMK A01 T02140147  RH  066%=      5-min Rain = 0
KEA1 081329Z 16002KT 22/15 A3016 RMK A01 T02160145  RH  064%=      5-min Rain = 0
KEA1 081330Z 17002KT 22/15 A3016 RMK A01 T02160146  RH  064%=      5-min Rain = 0
KEA1 081331Z 17002KT 22/14 A3016 RMK A01 T02170144  RH  063%=      5-min Rain = 0
KEA1 081332Z 16002KT 22/15 A3016 RMK A01 T02180146  RH  064%=      5-min Rain = 0
KEA1 081333Z 17002KT 22/14 A3016 RMK A01 T02180144  RH  063%=      5-min Rain = 0
KEA1 081334Z 18001KT 22/14 A3016 RMK A01 T02190143  RH  062%=      5-min Rain = 0
KEA1 081335Z 17000KT 22/14 A3016 RMK A01 T02200142  RH  061%=      5-min Rain = 0
KEA1 081336Z 15000KT 22/14 A3016 RMK A01 T02210142  RH  061%=      5-min Rain = 0
KEA1 081337Z 13001KT 22/14 A3016 RMK A01 T02220142  RH  060%=      5-min Rain = 0
KEA1 081338Z 13002KT 22/14 A3016 RMK A01 T02240144  RH  060%=      5-min Rain = 0
KEA1 081339Z 14002KT 22/14 A3016 RMK A01 T02240139  RH  058%=      5-min Rain = 0
KEA1 081340Z 13002KT 22/14 A3016 RMK A01 T02240140  RH  059%=      5-min Rain = 0
KEA1 081341Z 13002KT 22/14 A3016 RMK A01 T02240141  RH  059%=      5-min Rain = 0
KEA1 081342Z 13003KT 22/14 A3016 RMK A01 T02240142  RH  059%=      5-min Rain = 0
KEA1 081343Z 13002KT 22/14 A3016 RMK A01 T02240141  RH  059%=      5-min Rain = 0
KEA1 081344Z 13000KT 22/14 A3016 RMK A01 T02240142  RH  060%=      5-min Rain = 0
KEA1 081345Z 11002KT 23/14 A3016 RMK A01 T02250142  RH  059%=      5-min Rain = 0
KEA1 081346Z 12003KT 23/14 A3016 RMK A01 T02260141  RH  059%=      5-min Rain = 0
KEA1 081347Z 14004KT 23/14 A3016 RMK A01 T02250140  RH  059%=      5-min Rain = 0
KEA1 081348Z 15005KT 23/14 A3016 RMK A01 T02250141  RH  059%=      5-min Rain = 0
KEA1 081349Z 14005KT 23/14 A3016 RMK A01 T02260140  RH  058%=      5-min Rain = 0
KEA1 081350Z 14005KT 23/14 A3015 RMK A01 T02250137  RH  057%=      5-min Rain = 0
KEA1 081351Z 14005KT 23/14 A3015 RMK A01 T02250139  RH  058%=      5-min Rain = 0
KEA1 081352Z 13005KT 22/14 A3015 RMK A01 T02240140  RH  059%=      5-min Rain = 0
KEA1 081353Z 13005KT 23/14 A3015 RMK A01 T02250139  RH  058%=      5-min Rain = 0
KEA1 081354Z 12004KT 23/14 A3015 RMK A01 T02250140  RH  058%=      5-min Rain = 0
KEA1 081355Z 12004KT 23/14 A3015 RMK A01 T02260140  RH  058%=      5-min Rain = 0
KEA1 081356Z 12003KT 23/14 A3015 RMK A01 T02270141  RH  058%=      5-min Rain = 0
KEA1 081357Z 16003KT 23/14 A3016 RMK A01 T02290143  RH  058%=      5-min Rain = 0
KEA1 081358Z 16003KT 23/14 A3016 RMK A01 T02300140  RH  057%=      5-min Rain = 0
KEA1 081359Z 16003KT 23/14 A3016 RMK A01 T02300141  RH  057%=      5-min Rain = 0
KEA1 081400Z 18002KT 23/14 A3016 RMK A01 T02320142  RH  057%=      5-min Rain = 0
KEA1 081401Z 17002KT 23/14 A3016 RMK A01 T02340143  RH  056%=      5-min Rain = 0
KEA1 081402Z 18003KT 24/14 A3016 RMK A01 T02360142  RH  056%=      5-min Rain = 0
KEA1 081403Z 18003KT 24/14 A3016 RMK A01 T02360141  RH  055%=      5-min Rain = 0
KEA1 081404Z 18003KT 23/14 A3016 RMK A01 T02340140  RH  056%=      5-min Rain = 0
KEA1 081405Z 18003KT 23/14 A3016 RMK A01 T02330139  RH  055%=      5-min Rain = 0
KEA1 081406Z 18004KT 23/14 A3016 RMK A01 T02320140  RH  056%=      5-min Rain = 0
KEA1 081407Z 20003KT 23/14 A3016 RMK A01 T02320141  RH  056%=      5-min Rain = 0
KEA1 081408Z 18003KT 23/14 A3016 RMK A01 T02320140  RH  056%=      5-min Rain = 0
KEA1 081409Z 16003KT 23/14 A3016 RMK A01 T02340140  RH  056%=      5-min Rain = 0
KEA1 081410Z 16002KT 24/14 A3016 RMK A01 T02360138  RH  054%=      5-min Rain = 0
KEA1 081411Z 15002KT 24/14 A3016 RMK A01 T02370139  RH  054%=      5-min Rain = 0
KEA1 081412Z 13002KT 24/14 A3016 RMK A01 T02380140  RH  054%=      5-min Rain = 0
KEA1 081413Z 17002KT 24/14 A3016 RMK A01 T02410142  RH  054%=      5-min Rain = 0
KEA1 081414Z 15002KT 24/14 A3016 RMK A01 T02430141  RH  053%=      5-min Rain = 0
KEA1 081415Z 13003KT 24/14 A3016 RMK A01 T02430142  RH  053%=      5-min Rain = 0
KEA1 081416Z 12003KT 24/14 A3016 RMK A01 T02430141  RH  053%=      5-min Rain = 0
KEA1 081417Z 13003KT 24/14 A3016 RMK A01 T02420139  RH  053%=      5-min Rain = 0
KEA1 081418Z 14002KT 24/14 A3016 RMK A01 T02410140  RH  053%=      5-min Rain = 0
KEA1 081419Z 14004KT 24/14 A3016 RMK A01 T02400141  RH  054%=      5-min Rain = 0
KEA1 081420Z 15004KT 24/14 A3016 RMK A01 T02410142  RH  054%=      5-min Rain = 0
KEA1 081421Z 14005KT 24/14 A3016 RMK A01 T02420143  RH  054%=      5-min Rain = 0
KEA1 081422Z 13005KT 24/14 A3016 RMK A01 T02440142  RH  053%=      5-min Rain = 0
KEA1 081423Z 14005KT 25/14 A3016 RMK A01 T02450143  RH  053%=      5-min Rain = 0
KEA1 081424Z 13006KT 25/14 A3016 RMK A01 T02470144  RH  053%=      5-min Rain = 0
KEA1 081425Z 12006KT 25/14 A3016 RMK A01 T02470143  RH  052%=      5-min Rain = 0
KEA1 081426Z 13005KT 25/14 A3016 RMK A01 T02450142  RH  053%=      5-min Rain = 0
KEA1 081427Z 12006KT 24/14 A3016 RMK A01 T02440142  RH  053%=      5-min Rain = 0
KEA1 081428Z 12006KT 24/14 A3016 RMK A01 T02430142  RH  053%=      5-min Rain = 0
KEA1 081429Z 12006KT 24/14 A3016 RMK A01 T02420144  RH  054%=      5-min Rain = 0
KEA1 081430Z 11006KT 24/14 A3016 RMK A01 T02420142  RH  054%=      5-min Rain = 0
KEA1 081431Z 11006KT 24/14 A3016 RMK A01 T02420143  RH  054%=      5-min Rain = 0
KEA1 081432Z 11007KT 24/14 A3016 RMK A01 T02420143  RH  054%=      5-min Rain = 0
KEA1 081433Z 12007KT 24/14 A3016 RMK A01 T02420143  RH  054%=      5-min Rain = 0
KEA1 081434Z 12006KT 24/14 A3016 RMK A01 T02410143  RH  054%=      5-min Rain = 0
KEA1 081435Z 12005KT 24/14 A3016 RMK A01 T02410143  RH  054%=      5-min Rain = 0
KEA1 081436Z 12005KT 24/14 A3016 RMK A01 T02410144  RH  054%=      5-min Rain = 0
KEA1 081437Z 12005KT 24/14 A3016 RMK A01 T02410144  RH  055%=      5-min Rain = 0
KEA1 081438Z 11004KT 24/14 A3016 RMK A01 T02410143  RH  054%=      5-min Rain = 0
KEA1 081439Z 11004KT 24/14 A3016 RMK A01 T02410143  RH  054%=      5-min Rain = 0
KEA1 081440Z 10004KT 24/14 A3016 RMK A01 T02420144  RH  055%=      5-min Rain = 0
KEA1 081441Z 10004KT 24/15 A3016 RMK A01 T02410145  RH  055%=      5-min Rain = 0
KEA1 081442Z 10005KT 24/14 A3016 RMK A01 T02420144  RH  054%=      5-min Rain = 0
KEA1 081443Z 09004KT 24/14 A3016 RMK A01 T02420143  RH  054%=      5-min Rain = 0
KEA1 081444Z 11004KT 24/14 A3017 RMK A01 T02420143  RH  054%=      5-min Rain = 0
KEA1 081445Z 11005KT 24/14 A3017 RMK A01 T02420144  RH  054%=      5-min Rain = 0
KEA1 081446Z 12005KT 24/14 A3016 RMK A01 T02420142  RH  054%=      5-min Rain = 0
KEA1 081447Z 11005KT 24/14 A3016 RMK A01 T02420143  RH  054%=      5-min Rain = 0
KEA1 081448Z 11006KT 24/14 A3016 RMK A01 T02410143  RH  054%=      5-min Rain = 0
KEA1 081449Z 11006KT 24/14 A3016 RMK A01 T02410143  RH  054%=      5-min Rain = 0
KEA1 081450Z 10006KT 24/14 A3016 RMK A01 T02410143  RH  054%=      5-min Rain = 0
KEA1 081451Z 10006KT 24/14 A3016 RMK A01 T02410142  RH  054%=      5-min Rain = 0
KEA1 081452Z 08006KT 24/14 A3016 RMK A01 T02410143  RH  054%=      5-min Rain = 0
KEA1 081453Z 08007KT 24/14 A3016 RMK A01 T02410142  RH  054%=      5-min Rain = 0
KEA1 081454Z 08008KT 24/14 A3016 RMK A01 T02420141  RH  053%=      5-min Rain = 0
KEA1 081455Z 07006KT 24/14 A3017 RMK A01 T02410141  RH  053%=      5-min Rain = 0
KEA1 081456Z 07006KT 24/14 A3017 RMK A01 T02420142  RH  054%=      5-min Rain = 0
KEA1 081457Z 06006KT 24/14 A3018 RMK A01 T02420143  RH  054%=      5-min Rain = 0
KEA1 081458Z 05006KT 24/14 A3018 RMK A01 T02420143  RH  054%=      5-min Rain = 0
KEA1 081459Z 04005KT 24/14 A3018 RMK A01 T02420143  RH  054%=      5-min Rain = 0
KEA1 081500Z 04006KT 24/15 A3018 RMK A01 T02420145  RH  055%=      5-min Rain = 0
KEA1 081501Z 04006KT 24/15 A3019 RMK A01 T02420145  RH  055%=      5-min Rain = 0
KEA1 081502Z 05006KT 24/15 A3019 RMK A01 T02420145  RH  055%=      5-min Rain = 0
KEA1 081503Z 05006KT 24/15 A3019 RMK A01 T02420147  RH  056%=      5-min Rain = 0
KEA1 081504Z 05007KT 24/15 A3018 RMK A01 T02420148  RH  056%=      5-min Rain = 0
KEA1 081505Z 06007KT 24/15 A3018 RMK A01 T02420148  RH  056%=      5-min Rain = 0
KEA1 081506Z 06008KT 24/15 A3018 RMK A01 T02420149  RH  056%=      5-min Rain = 0
KEA1 081507Z 06008KT 24/15 A3019 RMK A01 T02420151  RH  057%=      5-min Rain = 0
KEA1 081508Z 06007KT 24/15 A3019 RMK A01 T02430153  RH  057%=      5-min Rain = 0
KEA1 081509Z 05007KT 24/15 A3019 RMK A01 T02440154  RH  057%=      5-min Rain = 0
KEA1 081510Z 04010KT 24/15 A302 RMK A01 T02440152  RH  056%=      5-min Rain = 0
KEA1 081511Z 03012KT 25/15 A302 RMK A01 T02450153  RH  057%=      5-min Rain = 0
KEA1 081512Z 03013G18KT 25/15 A3021 RMK A01 T02450153  RH  056%=      5-min Rain = 0
KEA1 081513Z 03013KT 24/15 A3021 RMK A01 T02440154  RH  057%=      5-min Rain = 0
KEA1 081514Z 02011KT 24/16 A3021 RMK A01 T02430156  RH  058%=      5-min Rain = 0
KEA1 081515Z 02008KT 24/16 A3021 RMK A01 T02430157  RH  059%=      5-min Rain = 0
KEA1 081516Z 02006KT 24/16 A3021 RMK A01 T02420156  RH  058%=      5-min Rain = 0
KEA1 081517Z 01006KT 24/16 A3022 RMK A01 T02420157  RH  059%=      5-min Rain = 0
KEA1 081518Z 01009KT 24/16 A3022 RMK A01 T02430158  RH  059%=      5-min Rain = 0
KEA1 081519Z 01007KT 24/16 A3022 RMK A01 T02440159  RH  059%=      5-min Rain = 0
KEA1 081520Z 01007KT 24/16 A3022 RMK A01 T02440157  RH  058%=      5-min Rain = 0
KEA1 081521Z 02007KT 25/16 A3022 RMK A01 T02450157  RH  058%=      5-min Rain = 0
KEA1 081522Z 02007KT 25/16 A3021 RMK A01 T02470158  RH  058%=      5-min Rain = 0
KEA1 081523Z 01007KT 25/16 A3021 RMK A01 T02480157  RH  057%=      5-min Rain = 0
KEA1 081524Z 01008KT 25/16 A3021 RMK A01 T02480158  RH  057%=      5-min Rain = 0
KEA1 081525Z 01005KT 25/16 A3021 RMK A01 T02490155  RH  056%=      5-min Rain = 0
KEA1 081526Z 01006KT 25/15 A3022 RMK A01 T02490152  RH  055%=      5-min Rain = 0
KEA1 081527Z 03010G15KT 25/15 A3022 RMK A01 T02500152  RH  055%=      5-min Rain = 0
KEA1 081528Z 02015KT 25/14 A3022 RMK A01 T02510141  RH  050%=      5-min Rain = 0
KEA1 081529Z 02018KT 25/14 A3022 RMK A01 T02520137  RH  049%=      5-min Rain = 0
KEA1 081530Z 02016KT 25/14 A3022 RMK A01 T02510138  RH  049%=      5-min Rain = 0
KEA1 081531Z 03014KT 25/14 A3022 RMK A01 T02510140  RH  050%=      5-min Rain = 0
KEA1 081532Z 03018KT 25/14 A3022 RMK A01 T02520139  RH  049%=      5-min Rain = 0
KEA1 081533Z 03017KT 25/14 A3022 RMK A01 T02510139  RH  050%=      5-min Rain = 0
KEA1 081534Z 04015KT 25/14 A3022 RMK A01 T02500140  RH  050%=      5-min Rain = 0
KEA1 081535Z 05013KT 25/14 A3022 RMK A01 T02500141  RH  051%=      5-min Rain = 0
KEA1 081536Z 04018KT 25/14 A3022 RMK A01 T02510142  RH  051%=      5-min Rain = 0
KEA1 081537Z 04018KT 25/14 A3022 RMK A01 T02520140  RH  050%=      5-min Rain = 0
KEA1 081538Z 05016KT 25/14 A3022 RMK A01 T02510142  RH  051%=      5-min Rain = 0
KEA1 081539Z 05016KT 25/14 A3022 RMK A01 T02510143  RH  051%=      5-min Rain = 0
KEA1 081540Z 04016KT 25/14 A3021 RMK A01 T02510144  RH  051%=      5-min Rain = 0
KEA1 081541Z 05018KT 25/14 A3021 RMK A01 T02500144  RH  052%=      5-min Rain = 0
KEA1 081542Z 05014KT 25/15 A3022 RMK A01 T02500145  RH  052%=      5-min Rain = 0
KEA1 081543Z 05017KT 25/15 A3022 RMK A01 T02510145  RH  052%=      5-min Rain = 0
KEA1 081544Z 06015KT 25/14 A3022 RMK A01 T02480144  RH  052%=      5-min Rain = 0
KEA1 081545Z 06016KT 25/14 A3022 RMK A01 T02450144  RH  053%=      5-min Rain = 0
KEA1 081546Z 05018KT 24/15 A3022 RMK A01 T02440145  RH  054%=      5-min Rain = 0
KEA1 081547Z 05015KT 24/15 A3022 RMK A01 T02430145  RH  054%=      5-min Rain = 0
KEA1 081548Z 04013G18KT 24/15 A3022 RMK A01 T02420147  RH  055%=      5-min Rain = 0
KEA1 081549Z 05018KT 24/15 A3022 RMK A01 T02430145  RH  054%=      5-min Rain = 0
KEA1 081550Z 05018KT 24/14 A3022 RMK A01 T02420144  RH  054%=      5-min Rain = 0
KEA1 081551Z 06017KT 24/15 A3022 RMK A01 T02410145  RH  055%=      5-min Rain = 0
KEA1 081552Z 06015KT 24/15 A3022 RMK A01 T02410146  RH  055%=      5-min Rain = 0
KEA1 081553Z 06018KT 24/14 A3022 RMK A01 T02410144  RH  055%=      5-min Rain = 0
KEA1 081554Z 07016KT 24/14 A3023 RMK A01 T02410143  RH  054%=      5-min Rain = 0
KEA1 081555Z 07014KT 24/15 A3023 RMK A01 T02400145  RH  055%=      5-min Rain = 0
KEA1 081556Z 07016KT 24/15 A3022 RMK A01 T02400146  RH  055%=      5-min Rain = 0
KEA1 081557Z 07018KT 24/15 A3022 RMK A01 T02410146  RH  055%=      5-min Rain = 0
KEA1 081558Z 07017G23KT 24/15 A3022 RMK A01 T02400146  RH  056%=      5-min Rain = 0
KEA1 081559Z 06015KT 24/15 A3022 RMK A01 T02380147  RH  057%=      5-min Rain = 0
KEA1 081600Z 07016KT 24/15 A3022 RMK A01 T02380147  RH  057%=      5-min Rain = 0
KEA1 081601Z 07017KT 24/15 A3022 RMK A01 T02380147  RH  056%=      5-min Rain = 0
KEA1 081602Z 07014G19KT 24/15 A3022 RMK A01 T02380146  RH  056%=      5-min Rain = 0
KEA1 081603Z 07016KT 24/15 A3022 RMK A01 T02370146  RH  057%=      5-min Rain = 0
KEA1 081604Z 06016KT 24/15 A3022 RMK A01 T02370146  RH  057%=      5-min Rain = 0
KEA1 081605Z 07017KT 24/15 A3022 RMK A01 T02370147  RH  057%=      5-min Rain = 0
KEA1 081606Z 07018KT 24/15 A3022 RMK A01 T02360145  RH  057%=      5-min Rain = 0
KEA1 081607Z 07016KT 24/15 A3022 RMK A01 T02360146  RH  057%=      5-min Rain = 0
KEA1 081608Z 07015KT 24/15 A3022 RMK A01 T02370148  RH  057%=      5-min Rain = 0
KEA1 081609Z 07012G18KT 24/15 A3022 RMK A01 T02380149  RH  058%=      5-min Rain = 0
KEA1 081610Z 08014KT 24/15 A3022 RMK A01 T02400148  RH  056%=      5-min Rain = 0
KEA1 081611Z 08016KT 24/15 A3022 RMK A01 T02390146  RH  056%=      5-min Rain = 0
KEA1 081612Z 08012KT 24/15 A3022 RMK A01 T02380146  RH  056%=      5-min Rain = 0
KEA1 081613Z 08011KT 24/15 A3022 RMK A01 T02400149  RH  057%=      5-min Rain = 0
KEA1 081614Z 08015G20KT 25/15 A3022 RMK A01 T02450148  RH  055%=      5-min Rain = 0
KEA1 081615Z 08018KT 25/15 A3022 RMK A01 T02470145  RH  053%=      5-min Rain = 0
KEA1 081616Z 08018KT 25/14 A3022 RMK A01 T02470143  RH  052%=      5-min Rain = 0
KEA1 081617Z 08018KT 25/14 A3022 RMK A01 T02460144  RH  053%=      5-min Rain = 0
KEA1 081618Z 08016G21KT 25/14 A3022 RMK A01 T02450144  RH  053%=      5-min Rain = 0
KEA1 081619Z 08015G20KT 25/15 A3022 RMK A01 T02470145  RH  053%=      5-min Rain = 0
KEA1 081620Z 08014KT 25/14 A3022 RMK A01 T02480144  RH  052%=      5-min Rain = 0
KEA1 081621Z 07016G21KT 25/15 A3021 RMK A01 T02480147  RH  053%=      5-min Rain = 0
KEA1 081622Z 07017KT 25/15 A3021 RMK A01 T02500146  RH  053%=      5-min Rain = 0
KEA1 081623Z 07020KT 25/15 A3021 RMK A01 T02520145  RH  052%=      5-min Rain = 0
KEA1 081624Z 08014G19KT 25/14 A3021 RMK A01 T02510144  RH  052%=      5-min Rain = 0
KEA1 081625Z 07015KT 25/15 A3021 RMK A01 T02510146  RH  052%=      5-min Rain = 0
KEA1 081626Z 08013KT 25/15 A3021 RMK A01 T02540147  RH  052%=      5-min Rain = 0
KEA1 081627Z 09013KT 26/15 A3021 RMK A01 T02570147  RH  051%=      5-min Rain = 0
KEA1 081628Z 08013G18KT 26/15 A3021 RMK A01 T02590147  RH  050%=      5-min Rain = 0
KEA1 081629Z 08012KT 26/15 A3021 RMK A01 T02590147  RH  050%=      5-min Rain = 0
KEA1 081630Z 09011KT 26/15 A3021 RMK A01 T02580147  RH  050%=      5-min Rain = 0
KEA1 081631Z 09011KT 26/15 A3021 RMK A01 T02570146  RH  050%=      5-min Rain = 0
KEA1 081632Z 08010KT 25/15 A3021 RMK A01 T02540147  RH  051%=      5-min Rain = 0
KEA1 081633Z 09011KT 26/15 A3021 RMK A01 T02570151  RH  052%=      5-min Rain = 0
KEA1 081634Z 09011KT 26/15 A3021 RMK A01 T02600148  RH  050%=      5-min Rain = 0
KEA1 081635Z 08014KT 26/15 A3021 RMK A01 T02590150  RH  051%=      5-min Rain = 0
KEA1 081636Z 10014KT 26/15 A3021 RMK A01 T02580146  RH  050%=      5-min Rain = 0
KEA1 081637Z 10013KT 26/15 A3021 RMK A01 T02570146  RH  050%=      5-min Rain = 0
KEA1 081638Z 09013KT 26/15 A3021 RMK A01 T02590145  RH  049%=      5-min Rain = 0
KEA1 081639Z 09013KT 26/15 A3021 RMK A01 T02590147  RH  050%=      5-min Rain = 0
KEA1 081640Z 09014KT 26/15 A3021 RMK A01 T02600147  RH  049%=      5-min Rain = 0
KEA1 081641Z 09012KT 26/15 A3021 RMK A01 T02610149  RH  050%=      5-min Rain = 0
KEA1 081642Z 09014KT 26/15 A3021 RMK A01 T02630148  RH  049%=      5-min Rain = 0
KEA1 081643Z 09013KT 27/15 A3021 RMK A01 T02660147  RH  048%=      5-min Rain = 0
KEA1 081644Z 09012KT 26/15 A3021 RMK A01 T02620146  RH  049%=      5-min Rain = 0
KEA1 081645Z 08013KT 26/15 A3021 RMK A01 T02600149  RH  050%=      5-min Rain = 0
KEA1 081646Z 09013KT 26/15 A3021 RMK A01 T02600151  RH  051%=      5-min Rain = 0
KEA1 081647Z 10012G18KT 26/15 A3021 RMK A01 T02610153  RH  051%=      5-min Rain = 0
KEA1 081648Z 11015G20KT 26/15 A302 RMK A01 T02630153  RH  051%=      5-min Rain = 0
KEA1 081649Z 10016KT 26/15 A302 RMK A01 T02640151  RH  050%=      5-min Rain = 0
KEA1 081650Z 09012KT 27/15 A3021 RMK A01 T02650152  RH  050%=      5-min Rain = 0
KEA1 081651Z 10016KT 27/15 A3021 RMK A01 T02660152  RH  050%=      5-min Rain = 0
KEA1 081652Z 10015KT 26/15 A3021 RMK A01 T02620149  RH  050%=      5-min Rain = 0
KEA1 081653Z 10014KT 26/15 A3021 RMK A01 T02590151  RH  051%=      5-min Rain = 0
KEA1 081654Z 09013KT 26/15 A302 RMK A01 T02600154  RH  052%=      5-min Rain = 0
KEA1 081655Z 09013G18KT 26/15 A302 RMK A01 T02620153  RH  051%=      5-min Rain = 0
KEA1 081656Z 08014G20KT 26/16 A302 RMK A01 T02610155  RH  052%=      5-min Rain = 0
KEA1 081657Z 09013G18KT 26/15 A302 RMK A01 T02600152  RH  051%=      5-min Rain = 0
KEA1 081658Z 09015KT 26/16 A302 RMK A01 T02590156  RH  053%=      5-min Rain = 0
KEA1 081659Z 10012KT 26/16 A302 RMK A01 T02590157  RH  053%=      5-min Rain = 0
KEA1 081700Z 09012KT 26/16 A302 RMK A01 T02620159  RH  053%=      5-min Rain = 0
KEA1 081701Z 08012KT 26/16 A302 RMK A01 T02640157  RH  052%=      5-min Rain = 0
KEA1 081702Z 09011G18KT 27/16 A302 RMK A01 T02650161  RH  053%=      5-min Rain = 0
KEA1 081703Z 09012KT 27/16 A302 RMK A01 T02700160  RH  051%=      5-min Rain = 0
KEA1 081704Z 10015KT 27/16 A302 RMK A01 T02680155  RH  050%=      5-min Rain = 0
KEA1 081705Z 10015KT 26/16 A302 RMK A01 T02620155  RH  052%=      5-min Rain = 0
KEA1 081706Z 09014G19KT 26/16 A302 RMK A01 T02620155  RH  052%=      5-min Rain = 0
KEA1 081707Z 09014KT 26/16 A302 RMK A01 T02610155  RH  052%=      5-min Rain = 0
KEA1 081708Z 09012KT 26/15 A302 RMK A01 T02610154  RH  052%=      5-min Rain = 0
KEA1 081709Z 09012KT 26/15 A302 RMK A01 T02610154  RH  052%=      5-min Rain = 0
KEA1 081710Z 08011KT 26/16 A302 RMK A01 T02620157  RH  052%=      5-min Rain = 0
KEA1 081711Z 09013KT 26/16 A302 RMK A01 T02640159  RH  052%=      5-min Rain = 0
KEA1 081712Z 10014KT 27/16 A302 RMK A01 T02650158  RH  052%=      5-min Rain = 0
KEA1 081713Z 10014KT 27/16 A302 RMK A01 T02650158  RH  052%=      5-min Rain = 0
KEA1 081714Z 09012KT 27/16 A302 RMK A01 T02660160  RH  052%=      5-min Rain = 0
KEA1 081715Z 09012KT 27/16 A302 RMK A01 T02690159  RH  051%=      5-min Rain = 0
KEA1 081716Z 10012KT 27/16 A302 RMK A01 T02710157  RH  049%=      5-min Rain = 0
KEA1 081717Z 10013KT 27/16 A3019 RMK A01 T02710159  RH  050%=      5-min Rain = 0
KEA1 081718Z 09013G19KT 27/16 A3019 RMK A01 T02710160  RH  051%=      5-min Rain = 0
KEA1 081719Z 07017KT 27/16 A3019 RMK A01 T02720156  RH  049%=      5-min Rain = 0
KEA1 081720Z 07018KT 27/16 A3019 RMK A01 T02710156  RH  049%=      5-min Rain = 0
KEA1 081721Z 07020KT 27/15 A3019 RMK A01 T02690153  RH  049%=      5-min Rain = 0
KEA1 081722Z 07018G23KT 27/16 A3019 RMK A01 T02680155  RH  050%=      5-min Rain = 0
KEA1 081723Z 08017G23KT 27/16 A3019 RMK A01 T02680156  RH  050%=      5-min Rain = 0
KEA1 081724Z 09012G17KT 27/16 A3019 RMK A01 T02680155  RH  050%=      5-min Rain = 0
KEA1 081725Z 09011KT 27/16 A3019 RMK A01 T02680155  RH  050%=      5-min Rain = 0
KEA1 081726Z 08013G18KT 27/16 A3019 RMK A01 T02680157  RH  051%=      5-min Rain = 0
KEA1 081727Z 08015G21KT 27/15 A3019 RMK A01 T02690154  RH  049%=      5-min Rain = 0
KEA1 081728Z 08013G18KT 27/16 A3019 RMK A01 T02660155  RH  050%=      5-min Rain = 0
KEA1 081729Z 07015KT 27/16 A3019 RMK A01 T02660158  RH  051%=      5-min Rain = 0
KEA1 081730Z 07019KT 27/16 A3019 RMK A01 T02680159  RH  051%=      5-min Rain = 0
KEA1 081731Z 07015G20KT 27/16 A3019 RMK A01 T02690158  RH  051%=      5-min Rain = 0
KEA1 081732Z 07017KT 27/16 A3019 RMK A01 T02700158  RH  050%=      5-min Rain = 0
KEA1 081733Z 09013G19KT 27/16 A3019 RMK A01 T02700161  RH  051%=      5-min Rain = 0
KEA1 081734Z 09014KT 27/16 A3019 RMK A01 T02710161  RH  051%=      5-min Rain = 0
KEA1 081735Z 08013G18KT 27/16 A3019 RMK A01 T02690160  RH  051%=      5-min Rain = 0
KEA1 081736Z 07016KT 27/16 A3019 RMK A01 T02680159  RH  051%=      5-min Rain = 0
KEA1 081737Z 10014KT 27/16 A3019 RMK A01 T02680159  RH  051%=      5-min Rain = 0
KEA1 081738Z 10013KT 27/15 A3019 RMK A01 T02690153  RH  049%=      5-min Rain = 0
KEA1 081739Z 09014KT 27/16 A3019 RMK A01 T02710158  RH  050%=      5-min Rain = 0
KEA1 081740Z 07017G22KT 27/16 A3019 RMK A01 T02710160  RH  050%=      5-min Rain = 0
KEA1 081741Z 08015KT 27/16 A3019 RMK A01 T02710156  RH  049%=      5-min Rain = 0
KEA1 081742Z 08015KT 27/16 A3019 RMK A01 T02710158  RH  050%=      5-min Rain = 0
KEA1 081743Z 09014KT 27/16 A3019 RMK A01 T02720157  RH  049%=      5-min Rain = 0
KEA1 081744Z 10014KT 27/16 A3019 RMK A01 T02700161  RH  051%=      5-min Rain = 0
KEA1 081745Z 10011KT 27/16 A3019 RMK A01 T02710163  RH  052%=      5-min Rain = 0
KEA1 081746Z 07014G19KT 27/17 A3019 RMK A01 T02730165  RH  052%=      5-min Rain = 0
KEA1 081747Z 09014G21KT 27/16 A3019 RMK A01 T02740162  RH  050%=      5-min Rain = 0
KEA1 081748Z 09016KT 27/16 A3019 RMK A01 T02720162  RH  051%=      5-min Rain = 0
KEA1 081749Z 09014KT 27/16 A3019 RMK A01 T02720160  RH  051%=      5-min Rain = 0
KEA1 081750Z 09015KT 27/16 A3019 RMK A01 T02690159  RH  051%=      5-min Rain = 0
KEA1 081751Z 09016G21KT 27/16 A3019 RMK A01 T02690158  RH  050%=      5-min Rain = 0
KEA1 081752Z 08019KT 27/16 A3019 RMK A01 T02690161  RH  051%=      5-min Rain = 0
KEA1 081753Z 08015G21KT 27/16 A3019 RMK A01 T02690164  RH  053%=      5-min Rain = 0
KEA1 081754Z 09012KT 27/17 A3019 RMK A01 T02680166  RH  054%=      5-min Rain = 0
KEA1 081755Z 08014G25KT 27/16 A3019 RMK A01 T02680164  RH  053%=      5-min Rain = 0
KEA1 081756Z 08021KT 27/16 A3019 RMK A01 T02680164  RH  053%=      5-min Rain = 0
KEA1 081757Z 07017G22KT 27/17 A3019 RMK A01 T02670165  RH  054%=      5-min Rain = 0
KEA1 081758Z 07018G23KT 27/16 A3019 RMK A01 T02660164  RH  053%=      5-min Rain = 0
KEA1 081759Z 08014KT 27/16 A3019 RMK A01 T02680164  RH  053%=      5-min Rain = 0
KEA1 081800Z 07017KT 27/16 A3019 RMK A01 T02700164  RH  052%=      5-min Rain = 0
KEA1 081801Z 08014KT 27/16 A3019 RMK A01 T02720162  RH  051%=      5-min Rain = 0
KEA1 081802Z 08016G21KT 27/17 A3019 RMK A01 T02700166  RH  053%=      5-min Rain = 0
KEA1 081803Z 07016KT 27/17 A3019 RMK A01 T02710167  RH  053%=      5-min Rain = 0
KEA1 081804Z 07018KT 27/17 A3019 RMK A01 T02740168  RH  052%=      5-min Rain = 0
KEA1 081805Z 08014G19KT 27/17 A3019 RMK A01 T02730167  RH  052%=      5-min Rain = 0
KEA1 081806Z 09012KT 27/17 A3019 RMK A01 T02730168  RH  053%=      5-min Rain = 0
KEA1 081807Z 08015G21KT 27/17 A3019 RMK A01 T02720166  RH  052%=      5-min Rain = 0
KEA1 081808Z 08012G17KT 27/17 A3019 RMK A01 T02710165  RH  052%=      5-min Rain = 0
KEA1 081809Z 10012KT 27/16 A3018 RMK A01 T02700163  RH  052%=      5-min Rain = 0
KEA1 081810Z 08012G19KT 27/16 A3018 RMK A01 T02700163  RH  052%=      5-min Rain = 0
KEA1 081811Z 08013G19KT 27/17 A3018 RMK A01 T02730165  RH  052%=      5-min Rain = 0
KEA1 081812Z 08015KT 28/16 A3018 RMK A01 T02750164  RH  051%=      5-min Rain = 0
KEA1 081813Z 07015KT 27/16 A3018 RMK A01 T02740163  RH  051%=      5-min Rain = 0
KEA1 081814Z 09013KT 27/17 A3018 RMK A01 T02730165  RH  052%=      5-min Rain = 0
KEA1 081815Z 09013G18KT 28/17 A3018 RMK A01 T02750167  RH  052%=      5-min Rain = 0
KEA1 081816Z 09012KT 28/16 A3018 RMK A01 T02770164  RH  050%=      5-min Rain = 0
KEA1 081817Z 10015KT 28/16 A3018 RMK A01 T02750162  RH  050%=      5-min Rain = 0
KEA1 081818Z 09013KT 28/16 A3018 RMK A01 T02750158  RH  049%=      5-min Rain = 0
KEA1 081819Z 08015KT 28/16 A3018 RMK A01 T02750159  RH  049%=      5-min Rain = 0
KEA1 081820Z 08011KT 28/16 A3018 RMK A01 T02770159  RH  049%=      5-min Rain = 0
KEA1 081821Z 09011KT 28/17 A3018 RMK A01 T02790165  RH  050%=      5-min Rain = 0
KEA1 081822Z 10012KT 28/17 A3018 RMK A01 T02800166  RH  050%=      5-min Rain = 0
KEA1 081823Z 09013KT 28/17 A3018 RMK A01 T02810166  RH  050%=      5-min Rain = 0
KEA1 081824Z 08014KT 28/17 A3018 RMK A01 T02780166  RH  050%=      5-min Rain = 0
KEA1 081825Z 08012G18KT 28/17 A3018 RMK A01 T02780166  RH  051%=      5-min Rain = 0
KEA1 081826Z 09012KT 28/17 A3018 RMK A01 T02780166  RH  051%=      5-min Rain = 0
KEA1 081827Z 10012KT 27/17 A3018 RMK A01 T02740168  RH  052%=      5-min Rain = 0
KEA1 081828Z 10016KT 27/17 A3018 RMK A01 T02740165  RH  051%=      5-min Rain = 0
KEA1 081829Z 10013KT 27/16 A3018 RMK A01 T02740163  RH  051%=      5-min Rain = 0
KEA1 081830Z 09012KT 27/17 A3018 RMK A01 T02740166  RH  052%=      5-min Rain = 0
KEA1 081831Z 09012KT 28/16 A3018 RMK A01 T02780164  RH  050%=      5-min Rain = 0
KEA1 081832Z 09010KT 28/17 A3017 RMK A01 T02810166  RH  050%=      5-min Rain = 0
KEA1 081833Z 08014KT 28/17 A3017 RMK A01 T02800166  RH  050%=      5-min Rain = 0
KEA1 081834Z 10014KT 28/16 A3017 RMK A01 T02760163  RH  050%=      5-min Rain = 0
KEA1 081835Z 10011G16KT 28/16 A3017 RMK A01 T02750161  RH  050%=      5-min Rain = 0
KEA1 081836Z 09013G18KT 28/16 A3017 RMK A01 T02780163  RH  049%=      5-min Rain = 0
KEA1 081837Z 09013G18KT 28/16 A3017 RMK A01 T02810163  RH  049%=      5-min Rain = 0
KEA1 081838Z 09013KT 28/16 A3017 RMK A01 T02800163  RH  049%=      5-min Rain = 0
KEA1 081839Z 09013KT 28/16 A3017 RMK A01 T02780164  RH  050%=      5-min Rain = 0
KEA1 081840Z 09013G18KT 28/17 A3017 RMK A01 T02780165  RH  050%=      5-min Rain = 0
KEA1 081841Z 10013KT 28/17 A3017 RMK A01 T02780166  RH  050%=      5-min Rain = 0
KEA1 081842Z 09011KT 28/16 A3017 RMK A01 T02780164  RH  050%=      5-min Rain = 0
KEA1 081843Z 09014KT 28/16 A3017 RMK A01 T02790159  RH  048%=      5-min Rain = 0
KEA1 081844Z 09013G18KT 28/16 A3017 RMK A01 T02790163  RH  049%=      5-min Rain = 0
KEA1 081845Z 10012KT 28/17 A3017 RMK A01 T02820165  RH  049%=      5-min Rain = 0
KEA1 081846Z 08012KT 28/17 A3017 RMK A01 T02830167  RH  049%=      5-min Rain = 0
KEA1 081847Z 09010KT 28/17 A3017 RMK A01 T02830168  RH  050%=      5-min Rain = 0
KEA1 081848Z 09013G18KT 28/16 A3017 RMK A01 T02830163  RH  048%=      5-min Rain = 0
KEA1 081849Z 08014KT 28/16 A3017 RMK A01 T02820160  RH  048%=      5-min Rain = 0
KEA1 081850Z 10012KT 28/16 A3017 RMK A01 T02780160  RH  049%=      5-min Rain = 0
KEA1 081851Z 08015G22KT 28/16 A3017 RMK A01 T02750158  RH  049%=      5-min Rain = 0
KEA1 081852Z 08017KT 28/15 A3017 RMK A01 T02770154  RH  047%=      5-min Rain = 0
KEA1 081853Z 08013KT 28/16 A3017 RMK A01 T02770158  RH  048%=      5-min Rain = 0
KEA1 081854Z 08015KT 28/16 A3017 RMK A01 T02790160  RH  048%=      5-min Rain = 0
KEA1 081855Z 09013KT 28/16 A3017 RMK A01 T02800159  RH  048%=      5-min Rain = 0
KEA1 081856Z 07014G19KT 28/16 A3017 RMK A01 T02800159  RH  048%=      5-min Rain = 0
KEA1 081857Z 08013KT 28/16 A3017 RMK A01 T02830155  RH  046%=      5-min Rain = 0
KEA1 081858Z 09009KT 29/16 A3017 RMK A01 T02850157  RH  046%=      5-min Rain = 0
KEA1 081859Z 08011KT 29/16 A3017 RMK A01 T02890160  RH  046%=      5-min Rain = 0
KEA1 081900Z 07016G21KT 29/16 A3017 RMK A01 T02880162  RH  046%=      5-min Rain = 0
KEA1 081901Z 07017KT 28/16 A3016 RMK A01 T02840162  RH  048%=      5-min Rain = 0
KEA1 081902Z 08014KT 28/16 A3017 RMK A01 T02800162  RH  049%=      5-min Rain = 0
KEA1 081903Z 09011KT 28/16 A3017 RMK A01 T02810160  RH  048%=      5-min Rain = 0
KEA1 081904Z 10012KT 29/15 A3017 RMK A01 T02850152  RH  044%=      5-min Rain = 0
KEA1 081905Z 11012KT 29/15 A3016 RMK A01 T02870152  RH  044%=      5-min Rain = 0
KEA1 081906Z 10014G19KT 29/15 A3016 RMK A01 T02870154  RH  044%=      5-min Rain = 0
KEA1 081907Z 11013KT 29/15 A3016 RMK A01 T02860152  RH  044%=      5-min Rain = 0
KEA1 081908Z 09011KT 28/16 A3016 RMK A01 T02830155  RH  046%=      5-min Rain = 0
KEA1 081909Z 09010KT 28/16 A3016 RMK A01 T02840160  RH  047%=      5-min Rain = 0
KEA1 081910Z 10012KT 29/16 A3016 RMK A01 T02860159  RH  046%=      5-min Rain = 0
KEA1 081911Z 11011KT 29/16 A3016 RMK A01 T02900157  RH  044%=      5-min Rain = 0
KEA1 081912Z 08011KT 29/16 A3016 RMK A01 T02920158  RH  044%=      5-min Rain = 0
KEA1 081913Z 07017KT 29/16 A3016 RMK A01 T02930159  RH  044%=      5-min Rain = 0
KEA1 081914Z 08015KT 29/16 A3016 RMK A01 T02900155  RH  044%=      5-min Rain = 0
KEA1 081915Z 11012KT 29/15 A3016 RMK A01 T02880152  RH  044%=      5-min Rain = 0
KEA1 081916Z 10010KT 29/15 A3016 RMK A01 T02870153  RH  044%=      5-min Rain = 0
KEA1 081917Z 11008KT 28/15 A3016 RMK A01 T02840151  RH  044%=      5-min Rain = 0
KEA1 081918Z 09011G16KT 28/15 A3016 RMK A01 T02830154  RH  045%=      5-min Rain = 0
KEA1 081919Z 09012KT 28/16 A3015 RMK A01 T02830156  RH  046%=      5-min Rain = 0
KEA1 081920Z 11013KT 29/16 A3015 RMK A01 T02870155  RH  045%=      5-min Rain = 0
KEA1 081921Z 12012KT 29/15 A3015 RMK A01 T02900148  RH  042%=      5-min Rain = 0
KEA1 081922Z 10008KT 29/15 A3015 RMK A01 T02900153  RH  043%=      5-min Rain = 0
KEA1 081923Z 09010KT 29/16 A3015 RMK A01 T02930155  RH  043%=      5-min Rain = 0
KEA1 081924Z 12013KT 29/15 A3015 RMK A01 T02940154  RH  043%=      5-min Rain = 0
KEA1 081925Z 13014KT 30/15 A3015 RMK A01 T02950152  RH  042%=      5-min Rain = 0
KEA1 081926Z 11012KT 29/15 A3015 RMK A01 T02940153  RH  042%=      5-min Rain = 0
KEA1 081927Z 11009KT 29/16 A3015 RMK A01 T02940155  RH  043%=      5-min Rain = 0
KEA1 081928Z 09012G17KT 30/16 A3015 RMK A01 T02970156  RH  043%=      5-min Rain = 0
KEA1 081929Z 08009KT 30/15 A3015 RMK A01 T02980152  RH  041%=      5-min Rain = 0
KEA1 081930Z 11011G16KT 30/15 A3015 RMK A01 T02960152  RH  042%=      5-min Rain = 0
KEA1 081931Z 12015KT 30/15 A3015 RMK A01 T02970152  RH  041%=      5-min Rain = 0
KEA1 081932Z 13013KT 30/15 A3015 RMK A01 T02970148  RH  040%=      5-min Rain = 0
KEA1 081933Z 13013KT 29/15 A3014 RMK A01 T02940151  RH  042%=      5-min Rain = 0
KEA1 081934Z 12011KT 29/15 A3014 RMK A01 T02920150  RH  042%=      5-min Rain = 0
KEA1 081935Z 11010G15KT 29/15 A3014 RMK A01 T02920152  RH  042%=      5-min Rain = 0
KEA1 081936Z 13013KT 30/15 A3014 RMK A01 T02980150  RH  041%=      5-min Rain = 0
KEA1 081937Z 13012KT 30/15 A3014 RMK A01 T02960147  RH  040%=      5-min Rain = 0
KEA1 081938Z 13017KT 30/15 A3014 RMK A01 T02960145  RH  040%=      5-min Rain = 0
KEA1 081939Z 12017G22KT 30/14 A3014 RMK A01 T02970142  RH  039%=      5-min Rain = 0
KEA1 081940Z 13014KT 30/14 A3014 RMK A01 T02980142  RH  039%=      5-min Rain = 0
KEA1 081941Z 12017KT 30/14 A3014 RMK A01 T02980144  RH  039%=      5-min Rain = 0
KEA1 081942Z 12011KT 29/14 A3014 RMK A01 T02930141  RH  039%=      5-min Rain = 0
KEA1 081943Z 11010G15KT 29/14 A3014 RMK A01 T02880142  RH  041%=      5-min Rain = 0
KEA1 081944Z 11013KT 29/14 A3014 RMK A01 T02890140  RH  040%=      5-min Rain = 0
KEA1 081945Z 12013G18KT 29/14 A3014 RMK A01 T02930144  RH  040%=      5-min Rain = 0
KEA1 081946Z 11011KT 30/14 A3014 RMK A01 T02960143  RH  039%=      5-min Rain = 0
KEA1 081947Z 11008KT 29/14 A3014 RMK A01 T02940142  RH  039%=      5-min Rain = 0
KEA1 081948Z 12012KT 29/15 A3014 RMK A01 T02940145  RH  040%=      5-min Rain = 0
KEA1 081949Z 11011KT 30/15 A3014 RMK A01 T02990149  RH  040%=      5-min Rain = 0
KEA1 081950Z 11014KT 30/15 A3014 RMK A01 T03040145  RH  038%=      5-min Rain = 0
KEA1 081951Z 12016KT 30/14 A3014 RMK A01 T03010142  RH  038%=      5-min Rain = 0
KEA1 081952Z 12010G15KT 30/14 A3014 RMK A01 T02960141  RH  039%=      5-min Rain = 0
KEA1 081953Z 10012KT 29/14 A3014 RMK A01 T02920142  RH  040%=      5-min Rain = 0
KEA1 081954Z 09009G14KT 29/14 A3014 RMK A01 T02930140  RH  039%=      5-min Rain = 0
KEA1 081955Z 10009KT 29/14 A3013 RMK A01 T02940142  RH  040%=      5-min Rain = 0
KEA1 081956Z 10011KT 30/14 A3013 RMK A01 T02960144  RH  039%=      5-min Rain = 0
KEA1 081957Z 12013KT 30/14 A3013 RMK A01 T02980144  RH  039%=      5-min Rain = 0
KEA1 081958Z 14010KT 30/15 A3013 RMK A01 T02960147  RH  040%=      5-min Rain = 0
KEA1 081959Z 12011G17KT 30/15 A3013 RMK A01 T02970149  RH  041%=      5-min Rain = 0
KEA1 082000Z 10011KT 30/15 A3013 RMK A01 T03000149  RH  040%=      5-min Rain = 0
KEA1 082001Z 12014KT 30/15 A3013 RMK A01 T03010149  RH  040%=      5-min Rain = 0
KEA1 082002Z 14013KT 30/15 A3013 RMK A01 T03010148  RH  039%=      5-min Rain = 0
KEA1 082003Z 13011KT 30/15 A3013 RMK A01 T02990149  RH  040%=      5-min Rain = 0
KEA1 082004Z 14013KT 30/15 A3013 RMK A01 T02990150  RH  041%=      5-min Rain = 0
KEA1 082005Z 13015KT 30/15 A3013 RMK A01 T02990147  RH  040%=      5-min Rain = 0
KEA1 082006Z 12014KT 30/15 A3013 RMK A01 T02980147  RH  040%=      5-min Rain = 0
KEA1 082007Z 12008KT 30/15 A3013 RMK A01 T02950145  RH  040%=      5-min Rain = 0
KEA1 082008Z 12013G18KT 29/15 A3013 RMK A01 T02930148  RH  041%=      5-min Rain = 0
KEA1 082009Z 10012KT 30/15 A3013 RMK A01 T02950146  RH  040%=      5-min Rain = 0
KEA1 082010Z 10013KT 30/15 A3013 RMK A01 T02970147  RH  040%=      5-min Rain = 0
KEA1 082011Z 11011G16KT 30/15 A3013 RMK A01 T02990147  RH  040%=      5-min Rain = 0
KEA1 082012Z 14014KT 30/15 A3013 RMK A01 T03020147  RH  039%=      5-min Rain = 0
KEA1 082013Z 13015KT 30/15 A3013 RMK A01 T03040148  RH  039%=      5-min Rain = 0
KEA1 082014Z 12010KT 31/15 A3013 RMK A01 T03050148  RH  038%=      5-min Rain = 0
KEA1 082015Z 12008KT 30/15 A3013 RMK A01 T03030147  RH  039%=      5-min Rain = 0
KEA1 082016Z 12009KT 30/15 A3013 RMK A01 T03000149  RH  040%=      5-min Rain = 0
KEA1 082017Z 10009G14KT 30/15 A3013 RMK A01 T03000148  RH  040%=      5-min Rain = 0
KEA1 082018Z 09011KT 30/15 A3013 RMK A01 T03020147  RH  039%=      5-min Rain = 0
KEA1 082019Z 10010KT 30/15 A3012 RMK A01 T03020147  RH  039%=      5-min Rain = 0
KEA1 082020Z 12016KT 30/15 A3013 RMK A01 T03010147  RH  039%=      5-min Rain = 0
KEA1 082021Z 11010G16KT 30/15 A3013 RMK A01 T03020147  RH  039%=      5-min Rain = 0
KEA1 082022Z 14009G14KT 30/15 A3012 RMK A01 T03020148  RH  039%=      5-min Rain = 0
KEA1 082023Z 11011KT 30/15 A3012 RMK A01 T03030148  RH  039%=      5-min Rain = 0
KEA1 082024Z 10011KT 31/15 A3012 RMK A01 T03050145  RH  038%=      5-min Rain = 0
KEA1 082025Z 12015G21KT 30/15 A3012 RMK A01 T03030146  RH  038%=      5-min Rain = 0
KEA1 082026Z 16013KT 30/15 A3012 RMK A01 T03030146  RH  038%=      5-min Rain = 0
KEA1 082027Z 18010KT 30/15 A3012 RMK A01 T03040145  RH  038%=      5-min Rain = 0
KEA1 082028Z 14009KT 30/15 A3012 RMK A01 T03020147  RH  039%=      5-min Rain = 0
KEA1 082029Z 13010KT 30/15 A3012 RMK A01 T03020146  RH  039%=      5-min Rain = 0
KEA1 082030Z 13012KT 30/14 A3012 RMK A01 T03020143  RH  038%=      5-min Rain = 0
KEA1 082031Z 14010KT 30/14 A3012 RMK A01 T03000144  RH  039%=      5-min Rain = 0
KEA1 082032Z 13011KT 30/14 A3012 RMK A01 T03000144  RH  039%=      5-min Rain = 0
KEA1 082033Z 13014G20KT 30/15 A3012 RMK A01 T03030145  RH  038%=      5-min Rain = 0
KEA1 082034Z 15014KT 30/15 A3012 RMK A01 T03030145  RH  038%=      5-min Rain = 0
KEA1 082035Z 16012KT 30/15 A3012 RMK A01 T03020145  RH  038%=      5-min Rain = 0
KEA1 082036Z 17008KT 30/15 A3012 RMK A01 T03010146  RH  039%=      5-min Rain = 0
KEA1 082037Z 16009KT 30/14 A3012 RMK A01 T03010144  RH  038%=      5-min Rain = 0
KEA1 082038Z 13010G17KT 30/14 A3012 RMK A01 T03000144  RH  039%=      5-min Rain = 0
KEA1 082039Z 13015KT 30/15 A3012 RMK A01 T03010147  RH  039%=      5-min Rain = 0
KEA1 082040Z 14013KT 30/15 A3012 RMK A01 T03040146  RH  038%=      5-min Rain = 0
KEA1 082041Z 14008KT 30/15 A3012 RMK A01 T03030146  RH  038%=      5-min Rain = 0
KEA1 082042Z 14008G13KT 30/15 A3012 RMK A01 T03000147  RH  039%=      5-min Rain = 0
KEA1 082043Z 13012G19KT 30/15 A3011 RMK A01 T03000148  RH  039%=      5-min Rain = 0
KEA1 082044Z 14013G20KT 30/15 A3012 RMK A01 T03040148  RH  039%=      5-min Rain = 0
KEA1 082045Z 12017KT 31/15 A3012 RMK A01 T03070148  RH  038%=      5-min Rain = 0
KEA1 082046Z 13014G19KT 31/15 A3012 RMK A01 T03050146  RH  038%=      5-min Rain = 0
KEA1 082047Z 13010KT 30/15 A3012 RMK A01 T03010148  RH  039%=      5-min Rain = 0
KEA1 082048Z 13010KT 30/15 A3012 RMK A01 T03020148  RH  039%=      5-min Rain = 0
KEA1 082049Z 14011KT 30/15 A3012 RMK A01 T03030148  RH  039%=      5-min Rain = 0
KEA1 082050Z 14007KT 30/15 A3011 RMK A01 T03030147  RH  039%=      5-min Rain = 0
KEA1 082051Z 12007G13KT 30/15 A3011 RMK A01 T03020149  RH  039%=      5-min Rain = 0
KEA1 082052Z 12016G21KT 31/15 A3011 RMK A01 T03060150  RH  039%=      5-min Rain = 0
KEA1 082053Z 12015KT 31/15 A3011 RMK A01 T03070148  RH  038%=      5-min Rain = 0
KEA1 082054Z 13014KT 30/15 A3011 RMK A01 T03040150  RH  039%=      5-min Rain = 0
KEA1 082055Z 14011KT 30/15 A3011 RMK A01 T03040150  RH  039%=      5-min Rain = 0
KEA1 082056Z 13016G22KT 31/15 A3011 RMK A01 T03050150  RH  039%=      5-min Rain = 0
KEA1 082057Z 13017KT 30/15 A3011 RMK A01 T03040148  RH  039%=      5-min Rain = 0
KEA1 082058Z 14013G18KT 30/15 A3011 RMK A01 T03020150  RH  040%=      5-min Rain = 0
KEA1 082059Z 13013KT 31/15 A3011 RMK A01 T03050152  RH  039%=      5-min Rain = 0
KEA1 082100Z 12008KT 31/15 A3011 RMK A01 T03090152  RH  039%=      5-min Rain = 0
KEA1 082101Z 13012KT 31/15 A3012 RMK A01 T03110153  RH  038%=      5-min Rain = 0
KEA1 082102Z 14009KT 31/15 A3011 RMK A01 T03100152  RH  038%=      5-min Rain = 0
KEA1 082103Z 12009KT 31/15 A3011 RMK A01 T03080152  RH  039%=      5-min Rain = 0
KEA1 082104Z 12009KT 31/15 A3011 RMK A01 T03070152  RH  039%=      5-min Rain = 0
KEA1 082105Z 11009KT 31/15 A3011 RMK A01 T03070150  RH  039%=      5-min Rain = 0
KEA1 082106Z 11009G15KT 31/15 A3011 RMK A01 T03070152  RH  039%=      5-min Rain = 0
KEA1 082107Z 11014KT 31/15 A3011 RMK A01 T03110153  RH  039%=      5-min Rain = 0
KEA1 082108Z 09009KT 31/15 A3011 RMK A01 T03110150  RH  038%=      5-min Rain = 0
KEA1 082109Z 10009KT 30/15 A3011 RMK A01 T03040151  RH  039%=      5-min Rain = 0
KEA1 082110Z 11013KT 30/15 A3011 RMK A01 T03030151  RH  040%=      5-min Rain = 0
KEA1 082111Z 13015G20KT 31/15 A3011 RMK A01 T03060153  RH  040%=      5-min Rain = 0
KEA1 082112Z 15014KT 31/15 A3011 RMK A01 T03100154  RH  039%=      5-min Rain = 0
KEA1 082113Z 14010G15KT 31/15 A3011 RMK A01 T03100151  RH  038%=      5-min Rain = 0
KEA1 082114Z 14011G19KT 31/15 A3011 RMK A01 T03060153  RH  039%=      5-min Rain = 0
KEA1 082115Z 13015G21KT 31/15 A3011 RMK A01 T03070154  RH  040%=      5-min Rain = 0
KEA1 082116Z 13016KT 31/15 A3011 RMK A01 T03110153  RH  038%=      5-min Rain = 0
KEA1 082117Z 13010KT 31/15 A3011 RMK A01 T03080153  RH  039%=      5-min Rain = 0
KEA1 082118Z 12011KT 31/15 A3011 RMK A01 T03070154  RH  039%=      5-min Rain = 0
KEA1 082119Z 12009KT 31/15 A3011 RMK A01 T03070153  RH  039%=      5-min Rain = 0
KEA1 082120Z 10007G12KT 31/15 A3011 RMK A01 T03050152  RH  039%=      5-min Rain = 0
KEA1 082121Z 12005KT 30/15 A301 RMK A01 T03040153  RH  040%=      5-min Rain = 0
KEA1 082122Z 10006KT 30/15 A3011 RMK A01 T03040154  RH  040%=      5-min Rain = 0
KEA1 082123Z 13011KT 31/15 A3011 RMK A01 T03060153  RH  040%=      5-min Rain = 0
KEA1 082124Z 14015KT 31/15 A301 RMK A01 T03080152  RH  039%=      5-min Rain = 0
KEA1 082125Z 14015KT 31/15 A301 RMK A01 T03090153  RH  039%=      5-min Rain = 0
KEA1 082126Z 14013KT 31/15 A3011 RMK A01 T03120154  RH  039%=      5-min Rain = 0
KEA1 082127Z 15011KT 31/15 A301 RMK A01 T03130153  RH  038%=      5-min Rain = 0
KEA1 082128Z 15012KT 31/15 A301 RMK A01 T03120153  RH  038%=      5-min Rain = 0
KEA1 082129Z 16011KT 31/15 A301 RMK A01 T03090152  RH  039%=      5-min Rain = 0
KEA1 082130Z 14014G19KT 31/15 A301 RMK A01 T03080153  RH  039%=      5-min Rain = 0
KEA1 082131Z 12017G22KT 31/15 A301 RMK A01 T03080152  RH  039%=      5-min Rain = 0
KEA1 082132Z 13011KT 31/15 A301 RMK A01 T03090154  RH  039%=      5-min Rain = 0
KEA1 082133Z 14013KT 31/15 A301 RMK A01 T03100154  RH  039%=      5-min Rain = 0
KEA1 082134Z 14013G18KT 31/15 A301 RMK A01 T03110153  RH  038%=      5-min Rain = 0
KEA1 082135Z 15013KT 31/15 A301 RMK A01 T03100154  RH  039%=      5-min Rain = 0
KEA1 082136Z 13011KT 31/15 A301 RMK A01 T03120154  RH  039%=      5-min Rain = 0
KEA1 082137Z 12008KT 31/15 A301 RMK A01 T03120153  RH  038%=      5-min Rain = 0
KEA1 082138Z 15007KT 31/15 A301 RMK A01 T03100154  RH  039%=      5-min Rain = 0
KEA1 082139Z 15008KT 31/15 A301 RMK A01 T03100154  RH  039%=      5-min Rain = 0
KEA1 082140Z 12008KT 31/16 A301 RMK A01 T03110155  RH  039%=      5-min Rain = 0
KEA1 082141Z 11009KT 31/15 A301 RMK A01 T03140154  RH  038%=      5-min Rain = 0
KEA1 082142Z 12009KT 31/16 A301 RMK A01 T03130156  RH  039%=      5-min Rain = 0
KEA1 082143Z 12009KT 31/16 A301 RMK A01 T03140155  RH  038%=      5-min Rain = 0
KEA1 082144Z 12007KT 32/16 A301 RMK A01 T03150156  RH  038%=      5-min Rain = 0
KEA1 082145Z 11006KT 32/16 A3009 RMK A01 T03180158  RH  038%=      5-min Rain = 0
KEA1 082146Z 12007KT 32/16 A301 RMK A01 T03190155  RH  037%=      5-min Rain = 0
KEA1 082147Z 15009KT 32/16 A3009 RMK A01 T03180157  RH  038%=      5-min Rain = 0
KEA1 082148Z 13009KT 32/16 A3009 RMK A01 T03180155  RH  037%=      5-min Rain = 0
KEA1 082149Z 11008G13KT 32/16 A3009 RMK A01 T03180158  RH  038%=      5-min Rain = 0
KEA1 082150Z 12012KT 32/16 A3009 RMK A01 T03200157  RH  038%=      5-min Rain = 0
KEA1 082151Z 11011G16KT 32/16 A3009 RMK A01 T03200157  RH  038%=      5-min Rain = 0
KEA1 082152Z 11017KT 32/16 A3009 RMK A01 T03200156  RH  037%=      5-min Rain = 0
KEA1 082153Z 13013KT 32/16 A3009 RMK A01 T03190156  RH  037%=      5-min Rain = 0
KEA1 082154Z 13010KT 32/16 A3009 RMK A01 T03160155  RH  038%=      5-min Rain = 0
KEA1 082155Z 13008KT 31/16 A3009 RMK A01 T03140155  RH  038%=      5-min Rain = 0
KEA1 082156Z 14006KT 31/16 A3009 RMK A01 T03140158  RH  039%=      5-min Rain = 0
KEA1 082157Z 11010G19KT 32/16 A3009 RMK A01 T03190160  RH  038%=      5-min Rain = 0
KEA1 082158Z 11015G20KT 32/16 A3009 RMK A01 T03220157  RH  037%=      5-min Rain = 0
KEA1 082159Z 12011KT 32/16 A3009 RMK A01 T03190158  RH  038%=      5-min Rain = 0
KEA1 082200Z 12015KT 32/16 A3009 RMK A01 T03200156  RH  037%=      5-min Rain = 0
KEA1 082201Z 12012KT 32/16 A3009 RMK A01 T03170155  RH  038%=      5-min Rain = 0
KEA1 082202Z 11008KT 31/16 A3009 RMK A01 T03140156  RH  038%=      5-min Rain = 0
KEA1 082203Z 13010KT 31/16 A3009 RMK A01 T03140157  RH  039%=      5-min Rain = 0
KEA1 082204Z 15011G16KT 32/16 A3008 RMK A01 T03160156  RH  038%=      5-min Rain = 0
KEA1 082205Z 13012KT 32/16 A3008 RMK A01 T03160157  RH  038%=      5-min Rain = 0
KEA1 082206Z 12013KT 32/16 A3008 RMK A01 T03170158  RH  038%=      5-min Rain = 0
KEA1 082207Z 12016KT 32/16 A3008 RMK A01 T03210158  RH  038%=      5-min Rain = 0
KEA1 082208Z 14015KT 32/16 A3008 RMK A01 T03220158  RH  037%=      5-min Rain = 0
KEA1 082209Z 13011KT 32/16 A3008 RMK A01 T03230159  RH  037%=      5-min Rain = 0
KEA1 082210Z 11013KT 32/16 A3008 RMK A01 T03240158  RH  037%=      5-min Rain = 0
KEA1 082211Z 11009KT 32/16 A3008 RMK A01 T03220157  RH  037%=      5-min Rain = 0
KEA1 082212Z 11012KT 32/16 A3008 RMK A01 T03200158  RH  038%=      5-min Rain = 0
KEA1 082213Z 10008KT 32/16 A3008 RMK A01 T03190157  RH  038%=      5-min Rain = 0
KEA1 082214Z 12013KT 32/16 A3008 RMK A01 T03180158  RH  038%=      5-min Rain = 0
KEA1 082215Z 12014G19KT 32/16 A3008 RMK A01 T03190158  RH  038%=      5-min Rain = 0
KEA1 082216Z 13010KT 32/16 A3008 RMK A01 T03190157  RH  038%=      5-min Rain = 0
KEA1 082217Z 13012G19KT 32/16 A3008 RMK A01 T03180158  RH  038%=      5-min Rain = 0
KEA1 082218Z 12012KT 32/16 A3008 RMK A01 T03190157  RH  038%=      5-min Rain = 0
KEA1 082219Z 12012KT 32/16 A3008 RMK A01 T03190156  RH  038%=      5-min Rain = 0
KEA1 082220Z 11007KT 32/16 A3008 RMK A01 T03180158  RH  038%=      5-min Rain = 0
KEA1 082221Z 13011KT 32/16 A3008 RMK A01 T03190158  RH  038%=      5-min Rain = 0
KEA1 082222Z 15009KT 32/16 A3008 RMK A01 T03200158  RH  038%=      5-min Rain = 0
KEA1 082223Z 15012KT 32/16 A3008 RMK A01 T03210158  RH  037%=      5-min Rain = 0
KEA1 082224Z 16011KT 32/16 A3008 RMK A01 T03210157  RH  037%=      5-min Rain = 0
KEA1 082225Z 16008KT 32/16 A3008 RMK A01 T03180156  RH  038%=      5-min Rain = 0
KEA1 082226Z 13005G10KT 32/16 A3008 RMK A01 T03180157  RH  038%=      5-min Rain = 0
KEA1 082227Z 12009KT 32/16 A3008 RMK A01 T03180159  RH  038%=      5-min Rain = 0
KEA1 082228Z 12008KT 32/16 A3008 RMK A01 T03190156  RH  038%=      5-min Rain = 0
KEA1 082229Z 11010G17KT 32/16 A3008 RMK A01 T03180159  RH  038%=      5-min Rain = 0
KEA1 082230Z 13013G18KT 32/16 A3008 RMK A01 T03190158  RH  038%=      5-min Rain = 0
KEA1 082231Z 11013KT 32/16 A3008 RMK A01 T03220159  RH  038%=      5-min Rain = 0
KEA1 082232Z 13016G21KT 32/16 A3008 RMK A01 T03230159  RH  037%=      5-min Rain = 0
KEA1 082233Z 13012KT 32/16 A3008 RMK A01 T03240159  RH  037%=      5-min Rain = 0
KEA1 082234Z 13014KT 33/16 A3008 RMK A01 T03260159  RH  037%=      5-min Rain = 0
KEA1 082235Z 12014KT 33/16 A3007 RMK A01 T03250158  RH  037%=      5-min Rain = 0
KEA1 082236Z 11012KT 32/16 A3007 RMK A01 T03210159  RH  038%=      5-min Rain = 0
KEA1 082237Z 10009KT 32/16 A3008 RMK A01 T03200158  RH  038%=      5-min Rain = 0
KEA1 082238Z 12011KT 32/16 A3007 RMK A01 T03190158  RH  038%=      5-min Rain = 0
KEA1 082239Z 11009KT 32/16 A3007 RMK A01 T03180158  RH  038%=      5-min Rain = 0
KEA1 082240Z 09009KT 32/16 A3007 RMK A01 T03180158  RH  038%=      5-min Rain = 0
KEA1 082241Z 11012KT 32/16 A3007 RMK A01 T03180158  RH  038%=      5-min Rain = 0
KEA1 082242Z 10014KT 32/16 A3007 RMK A01 T03200159  RH  038%=      5-min Rain = 0
KEA1 082243Z 10011KT 32/16 A3007 RMK A01 T03210157  RH  037%=      5-min Rain = 0
KEA1 082244Z 10008KT 32/16 A3007 RMK A01 T03180157  RH  038%=      5-min Rain = 0
KEA1 082245Z 08007KT 32/16 A3007 RMK A01 T03170157  RH  038%=      5-min Rain = 0
KEA1 082246Z 10009KT 32/16 A3007 RMK A01 T03150158  RH  039%=      5-min Rain = 0
KEA1 082247Z 11012KT 32/16 A3007 RMK A01 T03160157  RH  039%=      5-min Rain = 0
KEA1 082248Z 12012G17KT 32/16 A3007 RMK A01 T03170156  RH  038%=      5-min Rain = 0
KEA1 082249Z 12009KT 32/16 A3007 RMK A01 T03180158  RH  038%=      5-min Rain = 0
KEA1 082250Z 12011KT 32/16 A3007 RMK A01 T03200158  RH  038%=      5-min Rain = 0
KEA1 082251Z 11012KT 32/16 A3007 RMK A01 T03210157  RH  037%=      5-min Rain = 0
KEA1 082252Z 11009KT 32/16 A3007 RMK A01 T03200158  RH  038%=      5-min Rain = 0
KEA1 082253Z 12012G17KT 32/16 A3007 RMK A01 T03190158  RH  038%=      5-min Rain = 0
KEA1 082254Z 11012G18KT 32/16 A3007 RMK A01 T03190157  RH  038%=      5-min Rain = 0
KEA1 082255Z 10010KT 32/16 A3007 RMK A01 T03190158  RH  038%=      5-min Rain = 0
KEA1 082256Z 11010KT 32/16 A3007 RMK A01 T03200156  RH  037%=      5-min Rain = 0
KEA1 082257Z 11012KT 32/16 A3007 RMK A01 T03190158  RH  038%=      5-min Rain = 0
KEA1 082258Z 11010KT 32/16 A3007 RMK A01 T03190156  RH  037%=      5-min Rain = 0
KEA1 082259Z 09010KT 32/16 A3007 RMK A01 T03170156  RH  038%=      5-min Rain = 0
KEA1 082300Z 10010KT 32/16 A3007 RMK A01 T03170156  RH  038%=      5-min Rain = 0
KEA1 082301Z 10011KT 32/16 A3007 RMK A01 T03170155  RH  038%=      5-min Rain = 0
KEA1 082302Z 09010KT 32/16 A3007 RMK A01 T03170155  RH  038%=      5-min Rain = 0
KEA1 082303Z 09009KT 32/16 A3007 RMK A01 T03170155  RH  038%=      5-min Rain = 0
KEA1 082304Z 12012G17KT 32/16 A3007 RMK A01 T03170157  RH  038%=      5-min Rain = 0
KEA1 082305Z 11011KT 32/15 A3007 RMK A01 T03190154  RH  037%=      5-min Rain = 0
KEA1 082306Z 11008KT 32/16 A3007 RMK A01 T03210156  RH  037%=      5-min Rain = 0
KEA1 082307Z 13011KT 32/16 A3007 RMK A01 T03220156  RH  037%=      5-min Rain = 0
KEA1 082308Z 13011KT 32/16 A3007 RMK A01 T03220155  RH  037%=      5-min Rain = 0
KEA1 082309Z 13011KT 32/16 A3007 RMK A01 T03220155  RH  037%=      5-min Rain = 0
KEA1 082310Z 10008KT 32/16 A3007 RMK A01 T03210157  RH  037%=      5-min Rain = 0
KEA1 082311Z 11013KT 32/16 A3007 RMK A01 T03220157  RH  037%=      5-min Rain = 0
KEA1 082312Z 11012G17KT 32/16 A3007 RMK A01 T03230156  RH  037%=      5-min Rain = 0
KEA1 082313Z 10011G16KT 32/16 A3007 RMK A01 T03230156  RH  037%=      5-min Rain = 0
KEA1 082314Z 09010KT 32/16 A3007 RMK A01 T03220156  RH  037%=      5-min Rain = 0
KEA1 082315Z 09009KT 32/16 A3007 RMK A01 T03220156  RH  037%=      5-min Rain = 0
KEA1 082316Z 08008KT 32/16 A3007 RMK A01 T03200156  RH  037%=      5-min Rain = 0
KEA1 082317Z 11012KT 32/16 A3007 RMK A01 T03200157  RH  038%=      5-min Rain = 0
KEA1 082318Z 10009KT 32/16 A3008 RMK A01 T03220157  RH  037%=      5-min Rain = 0
KEA1 082319Z 10010KT 32/16 A3007 RMK A01 T03220155  RH  037%=      5-min Rain = 0
KEA1 082320Z 10010KT 32/16 A3007 RMK A01 T03200155  RH  037%=      5-min Rain = 0
KEA1 082321Z 11008KT 32/16 A3007 RMK A01 T03190157  RH  038%=      5-min Rain = 0
KEA1 082322Z 10009KT 32/16 A3007 RMK A01 T03200156  RH  037%=      5-min Rain = 0
KEA1 082323Z 11009KT 32/16 A3007 RMK A01 T03210156  RH  037%=      5-min Rain = 0
KEA1 082324Z 09006KT 32/16 A3007 RMK A01 T03210157  RH  037%=      5-min Rain = 0
KEA1 082325Z 10006KT 32/16 A3007 RMK A01 T03220157  RH  037%=      5-min Rain = 0
KEA1 082326Z 12010KT 32/16 A3007 RMK A01 T03230157  RH  037%=      5-min Rain = 0
KEA1 082327Z 11009KT 32/16 A3007 RMK A01 T03220156  RH  037%=      5-min Rain = 0
KEA1 082328Z 12009KT 32/16 A3007 RMK A01 T03220156  RH  037%=      5-min Rain = 0
KEA1 082329Z 10005KT 32/16 A3007 RMK A01 T03210155  RH  037%=      5-min Rain = 0
KEA1 082330Z 08006KT 32/15 A3007 RMK A01 T03190153  RH  037%=      5-min Rain = 0
KEA1 082331Z 10008KT 32/16 A3007 RMK A01 T03170156  RH  038%=      5-min Rain = 0
KEA1 082332Z 11010KT 32/16 A3007 RMK A01 T03180157  RH  038%=      5-min Rain = 0
KEA1 082333Z 10011KT 32/16 A3007 RMK A01 T03210156  RH  037%=      5-min Rain = 0
KEA1 082334Z 10009KT 32/16 A3007 RMK A01 T03200156  RH  037%=      5-min Rain = 0
KEA1 082335Z 11010KT 32/16 A3007 RMK A01 T03190157  RH  037%=      5-min Rain = 0
KEA1 082336Z 12013KT 32/16 A3007 RMK A01 T03190157  RH  038%=      5-min Rain = 0
KEA1 082337Z 12014KT 32/16 A3007 RMK A01 T03210156  RH  037%=      5-min Rain = 0
KEA1 082338Z 12010KT 32/16 A3007 RMK A01 T03210156  RH  037%=      5-min Rain = 0
KEA1 082339Z 11010KT 32/16 A3007 RMK A01 T03200156  RH  037%=      5-min Rain = 0
KEA1 082340Z 11009KT 32/16 A3007 RMK A01 T03200155  RH  037%=      5-min Rain = 0
KEA1 082341Z 11007KT 32/16 A3007 RMK A01 T03190157  RH  038%=      5-min Rain = 0
KEA1 082342Z 10009KT 32/16 A3007 RMK A01 T03200156  RH  037%=      5-min Rain = 0
KEA1 082343Z 10006KT 32/16 A3007 RMK A01 T03200155  RH  037%=      5-min Rain = 0
KEA1 082344Z 11010KT 32/16 A3007 RMK A01 T03200156  RH  037%=      5-min Rain = 0
KEA1 082345Z 11010KT 32/16 A3007 RMK A01 T03190156  RH  037%=      5-min Rain = 0
KEA1 082346Z 11010KT 32/16 A3008 RMK A01 T03190155  RH  037%=      5-min Rain = 0
KEA1 082347Z 10009KT 32/15 A3008 RMK A01 T03200154  RH  037%=      5-min Rain = 0
KEA1 082348Z 10010KT 32/15 A3008 RMK A01 T03190154  RH  037%=      5-min Rain = 0
KEA1 082349Z 10008KT 32/15 A3008 RMK A01 T03170154  RH  037%=      5-min Rain = 0
KEA1 082350Z 10009KT 32/16 A3008 RMK A01 T03170155  RH  038%=      5-min Rain = 0
KEA1 082351Z 11010KT 32/15 A3008 RMK A01 T03160154  RH  038%=      5-min Rain = 0
KEA1 082352Z 11006KT 32/16 A3008 RMK A01 T03160155  RH  038%=      5-min Rain = 0
KEA1 082353Z 10006KT 32/16 A3008 RMK A01 T03150155  RH  038%=      5-min Rain = 0
KEA1 082354Z 12007KT 32/16 A3008 RMK A01 T03160155  RH  038%=      5-min Rain = 0
KEA1 082355Z 11009KT 32/16 A3008 RMK A01 T03160156  RH  038%=      5-min Rain = 0
KEA1 082356Z 12010KT 32/15 A3008 RMK A01 T03160154  RH  038%=      5-min Rain = 0
KEA1 082357Z 12012KT 32/15 A3008 RMK A01 T03150154  RH  038%=      5-min Rain = 0
KEA1 082358Z 12011KT 31/15 A3008 RMK A01 T03140154  RH  038%=      5-min Rain = 0
KEA1 082359Z 12010KT 31/15 A3008 RMK A01 T03130153  RH  038%=      5-min Rain = 0
KEA1 090000Z 12009G15KT 31/15 A3008 RMK A01 T03110153  RH  039%=      5-min Rain = 0
KEA1 090001Z 12011KT 31/15 A3008 RMK A01 T03100153  RH  039%=      5-min Rain = 0
KEA1 090002Z 11010KT 31/15 A3008 RMK A01 T03110153  RH  039%=      5-min Rain = 0
KEA1 090003Z 11009KT 31/15 A3008 RMK A01 T03110153  RH  038%=      5-min Rain = 0
KEA1 090004Z 11008KT 31/15 A3008 RMK A01 T03110153  RH  038%=      5-min Rain = 0
KEA1 090005Z 11007KT 31/15 A3008 RMK A01 T03110153  RH  038%=      5-min Rain = 0
KEA1 090006Z 10009KT 31/15 A3008 RMK A01 T03100153  RH  039%=      5-min Rain = 0
KEA1 090007Z 10007KT 31/15 A3008 RMK A01 T03090153  RH  039%=      5-min Rain = 0
KEA1 090008Z 09007KT 31/15 A3008 RMK A01 T03090154  RH  039%=      5-min Rain = 0
KEA1 090009Z 10007KT 31/15 A3008 RMK A01 T03080153  RH  039%=      5-min Rain = 0
KEA1 090010Z 10008KT 31/15 A3008 RMK A01 T03080153  RH  039%=      5-min Rain = 0
KEA1 090011Z 09009KT 31/15 A3008 RMK A01 T03080153  RH  039%=      5-min Rain = 0
KEA1 090012Z 09009KT 31/15 A3008 RMK A01 T03080153  RH  039%=      5-min Rain = 0
KEA1 090013Z 10008KT 31/15 A3008 RMK A01 T03070153  RH  039%=      5-min Rain = 0
KEA1 090014Z 09008KT 31/15 A3008 RMK A01 T03070153  RH  039%=      5-min Rain = 0
KEA1 090015Z 10007KT 31/15 A3008 RMK A01 T03060152  RH  039%=      5-min Rain = 0
KEA1 090016Z 10008KT 31/15 A3008 RMK A01 T03060153  RH  039%=      5-min Rain = 0
KEA1 090017Z 10007KT 31/15 A3008 RMK A01 T03060152  RH  039%=      5-min Rain = 0
KEA1 090018Z 10006KT 31/15 A3008 RMK A01 T03050153  RH  040%=      5-min Rain = 0
KEA1 090019Z 09007KT 31/15 A3008 RMK A01 T03050153  RH  040%=      5-min Rain = 0
KEA1 090020Z 09008KT 31/15 A3008 RMK A01 T03050152  RH  040%=      5-min Rain = 0
KEA1 090021Z 09009KT 31/15 A3008 RMK A01 T03050152  RH  039%=      5-min Rain = 0
KEA1 090022Z 08009KT 31/15 A3008 RMK A01 T03050152  RH  040%=      5-min Rain = 0
KEA1 090023Z 08009KT 31/15 A3008 RMK A01 T03050151  RH  039%=      5-min Rain = 0
KEA1 090024Z 09008KT 31/15 A3008 RMK A01 T03050151  RH  039%=      5-min Rain = 0
KEA1 090025Z 09006KT 30/15 A3008 RMK A01 T03040152  RH  040%=      5-min Rain = 0
KEA1 090026Z 09008KT 30/15 A3008 RMK A01 T03040152  RH  040%=      5-min Rain = 0
KEA1 090027Z 09007KT 30/15 A3007 RMK A01 T03040152  RH  040%=      5-min Rain = 0
KEA1 090028Z 10008KT 30/15 A3007 RMK A01 T03040152  RH  040%=      5-min Rain = 0
KEA1 090029Z 09007KT 30/15 A3007 RMK A01 T03030152  RH  040%=      5-min Rain = 0
KEA1 090030Z 09009KT 30/15 A3007 RMK A01 T03030152  RH  040%=      5-min Rain = 0
KEA1 090031Z 09009KT 30/15 A3007 RMK A01 T03030151  RH  040%=      5-min Rain = 0
KEA1 090032Z 10009KT 30/15 A3007 RMK A01 T03030152  RH  040%=      5-min Rain = 0
KEA1 090033Z 11011KT 30/15 A3007 RMK A01 T03040152  RH  040%=      5-min Rain = 0
KEA1 090034Z 10012KT 30/15 A3007 RMK A01 T03030151  RH  040%=      5-min Rain = 0
KEA1 090035Z 11013KT 30/15 A3007 RMK A01 T03030151  RH  040%=      5-min Rain = 0
KEA1 090036Z 11011KT 30/15 A3007 RMK A01 T03030151  RH  040%=      5-min Rain = 0
KEA1 090037Z 10010KT 30/15 A3007 RMK A01 T03030151  RH  040%=      5-min Rain = 0
KEA1 090038Z 09010KT 30/15 A3007 RMK A01 T03030151  RH  040%=      5-min Rain = 0
KEA1 090039Z 10011KT 30/15 A3007 RMK A01 T03030151  RH  040%=      5-min Rain = 0
KEA1 090040Z 10009KT 30/15 A3007 RMK A01 T03030151  RH  040%=      5-min Rain = 0
KEA1 090041Z 10009KT 30/15 A3007 RMK A01 T03020151  RH  040%=      5-min Rain = 0
KEA1 090042Z 10008KT 30/15 A3007 RMK A01 T03020151  RH  040%=      5-min Rain = 0
KEA1 090043Z 10008KT 30/15 A3007 RMK A01 T03020151  RH  040%=      5-min Rain = 0
KEA1 090044Z 10009KT 30/15 A3007 RMK A01 T03010151  RH  040%=      5-min Rain = 0
KEA1 090045Z 11011KT 30/15 A3007 RMK A01 T03010150  RH  040%=      5-min Rain = 0
KEA1 090046Z 11010KT 30/15 A3007 RMK A01 T03010150  RH  040%=      5-min Rain = 0
KEA1 090047Z 10008KT 30/15 A3007 RMK A01 T03010150  RH  040%=      5-min Rain = 0
KEA1 090048Z 10011KT 30/15 A3007 RMK A01 T03010150  RH  040%=      5-min Rain = 0
KEA1 090049Z 10011KT 30/15 A3007 RMK A01 T03010150  RH  040%=      5-min Rain = 0
KEA1 090050Z 11011KT 30/15 A3006 RMK A01 T03010150  RH  040%=      5-min Rain = 0
KEA1 090051Z 10011KT 30/15 A3006 RMK A01 T03010151  RH  040%=      5-min Rain = 0
KEA1 090052Z 08014KT 30/15 A3006 RMK A01 T03000153  RH  041%=      5-min Rain = 0
KEA1 090053Z 08013KT 30/16 A3006 RMK A01 T02990155  RH  042%=      5-min Rain = 0
KEA1 090054Z 07014KT 30/16 A3006 RMK A01 T02980156  RH  042%=      5-min Rain = 0
KEA1 090055Z 08014KT 30/16 A3006 RMK A01 T02970156  RH  042%=      5-min Rain = 0
KEA1 090056Z 08014KT 30/16 A3006 RMK A01 T02950155  RH  043%=      5-min Rain = 0
KEA1 090057Z 07012KT 30/16 A3007 RMK A01 T02950155  RH  043%=      5-min Rain = 0
KEA1 090058Z 08013KT 29/16 A3007 RMK A01 T02940155  RH  043%=      5-min Rain = 0
KEA1 090059Z 07012KT 29/16 A3007 RMK A01 T02940155  RH  043%=      5-min Rain = 0
KEA1 090100Z 07012KT 29/16 A3007 RMK A01 T02940155  RH  043%=      5-min Rain = 0
KEA1 090101Z 07013KT 29/16 A3008 RMK A01 T02930156  RH  043%=      5-min Rain = 0
KEA1 090102Z 07013KT 29/16 A3008 RMK A01 T02930155  RH  043%=      5-min Rain = 0
KEA1 090103Z 07014KT 29/16 A3008 RMK A01 T02930155  RH  043%=      5-min Rain = 0
KEA1 090104Z 07013KT 29/16 A3008 RMK A01 T02930155  RH  043%=      5-min Rain = 0
KEA1 090105Z 06013KT 29/16 A3008 RMK A01 T02930155  RH  043%=      5-min Rain = 0
KEA1 090106Z 07013KT 29/16 A3008 RMK A01 T02920155  RH  043%=      5-min Rain = 0
KEA1 090107Z 06011KT 29/16 A3008 RMK A01 T02920156  RH  044%=      5-min Rain = 0
KEA1 090108Z 06013KT 29/16 A3008 RMK A01 T02910156  RH  044%=      5-min Rain = 0
KEA1 090109Z 06014KT 29/16 A3008 RMK A01 T02900156  RH  044%=      5-min Rain = 0
KEA1 090110Z 06014KT 29/16 A3008 RMK A01 T02890157  RH  045%=      5-min Rain = 0
KEA1 090111Z 07014KT 29/16 A3008 RMK A01 T02890157  RH  045%=      5-min Rain = 0
KEA1 090112Z 06015KT 29/16 A3008 RMK A01 T02880157  RH  045%=      5-min Rain = 0
KEA1 090113Z 07013KT 29/16 A3008 RMK A01 T02880157  RH  045%=      5-min Rain = 0
KEA1 090114Z 07015KT 29/16 A3008 RMK A01 T02870157  RH  045%=      5-min Rain = 0
KEA1 090115Z 06015KT 29/16 A3008 RMK A01 T02870157  RH  045%=      5-min Rain = 0
KEA1 090116Z 07013KT 29/16 A3008 RMK A01 T02870156  RH  045%=      5-min Rain = 0
KEA1 090117Z 07013KT 29/16 A3008 RMK A01 T02870156  RH  045%=      5-min Rain = 0
KEA1 090118Z 07012KT 29/16 A3008 RMK A01 T02860157  RH  045%=      5-min Rain = 0
KEA1 090119Z 07013KT 29/16 A3008 RMK A01 T02860157  RH  045%=      5-min Rain = 0
KEA1 090120Z 06012KT 29/16 A3008 RMK A01 T02850156  RH  045%=      5-min Rain = 0
KEA1 090121Z 06013KT 29/16 A3008 RMK A01 T02850156  RH  045%=      5-min Rain = 0
KEA1 090122Z 06015KT 29/16 A3008 RMK A01 T02850156  RH  045%=      5-min Rain = 0
KEA1 090123Z 07014KT 29/16 A3009 RMK A01 T02850156  RH  045%=      5-min Rain = 0
KEA1 090124Z 07013KT 29/16 A3009 RMK A01 T02850156  RH  045%=      5-min Rain = 0
KEA1 090125Z 07014KT 29/16 A3009 RMK A01 T02850156  RH  045%=      5-min Rain = 0
KEA1 090126Z 07015KT 29/16 A3009 RMK A01 T02850155  RH  045%=      5-min Rain = 0
KEA1 090127Z 07014KT 29/16 A3009 RMK A01 T02860155  RH  045%=      5-min Rain = 0
KEA1 090128Z 07014KT 29/16 A3009 RMK A01 T02850155  RH  045%=      5-min Rain = 0
KEA1 090129Z 07014KT 29/16 A3009 RMK A01 T02860155  RH  045%=      5-min Rain = 0
KEA1 090130Z 07013KT 29/16 A3009 RMK A01 T02850155  RH  045%=      5-min Rain = 0
KEA1 090131Z 07013KT 29/16 A3009 RMK A01 T02850155  RH  045%=      5-min Rain = 0
KEA1 090132Z 07013KT 29/16 A3009 RMK A01 T02850155  RH  045%=      5-min Rain = 0
KEA1 090133Z 07013KT 29/16 A3009 RMK A01 T02850155  RH  045%=      5-min Rain = 0
KEA1 090134Z 07013KT 29/16 A3009 RMK A01 T02850155  RH  045%=      5-min Rain = 0
KEA1 090135Z 07014KT 28/16 A3009 RMK A01 T02840155  RH  045%=      5-min Rain = 0
KEA1 090136Z 07011KT 28/16 A3009 RMK A01 T02840155  RH  045%=      5-min Rain = 0
KEA1 090137Z 07014KT 29/16 A3009 RMK A01 T02850155  RH  045%=      5-min Rain = 0
KEA1 090138Z 07012KT 29/15 A3009 RMK A01 T02850154  RH  045%=      5-min Rain = 0
KEA1 090139Z 07013KT 28/16 A3009 RMK A01 T02840155  RH  045%=      5-min Rain = 0
KEA1 090140Z 07014KT 28/15 A3009 RMK A01 T02840154  RH  045%=      5-min Rain = 0
KEA1 090141Z 07013KT 29/15 A3009 RMK A01 T02850154  RH  045%=      5-min Rain = 0
KEA1 090142Z 07015KT 29/16 A3008 RMK A01 T02850155  RH  045%=      5-min Rain = 0
KEA1 090143Z 07013KT 29/15 A3008 RMK A01 T02850154  RH  045%=      5-min Rain = 0
KEA1 090144Z 07013KT 28/15 A3008 RMK A01 T02840154  RH  045%=      5-min Rain = 0
KEA1 090145Z 07014KT 28/15 A3008 RMK A01 T02840154  RH  045%=      5-min Rain = 0
KEA1 090146Z 07013KT 28/15 A3008 RMK A01 T02840154  RH  045%=      5-min Rain = 0
KEA1 090147Z 07013KT 28/15 A3008 RMK A01 T02840154  RH  045%=      5-min Rain = 0
KEA1 090148Z 07013KT 28/15 A3008 RMK A01 T02830154  RH  045%=      5-min Rain = 0
KEA1 090149Z 07013KT 28/15 A3008 RMK A01 T02830154  RH  045%=      5-min Rain = 0
KEA1 090150Z 07014KT 28/15 A3008 RMK A01 T02830154  RH  046%=      5-min Rain = 0
KEA1 090151Z 07012KT 28/15 A3008 RMK A01 T02830154  RH  046%=      5-min Rain = 0
KEA1 090152Z 08012KT 28/15 A3008 RMK A01 T02820154  RH  046%=      5-min Rain = 0
KEA1 090153Z 07015KT 28/15 A3008 RMK A01 T02820154  RH  046%=      5-min Rain = 0
KEA1 090154Z 07013KT 28/15 A3008 RMK A01 T02820154  RH  046%=      5-min Rain = 0
KEA1 090155Z 07012KT 28/15 A3008 RMK A01 T02820154  RH  046%=      5-min Rain = 0
KEA1 090156Z 08011KT 28/15 A3008 RMK A01 T02810154  RH  046%=      5-min Rain = 0
KEA1 090157Z 07011KT 28/15 A3008 RMK A01 T02810154  RH  046%=      5-min Rain = 0
KEA1 090158Z 08010KT 28/15 A3008 RMK A01 T02810154  RH  046%=      5-min Rain = 0
KEA1 090159Z 08010KT 28/15 A3008 RMK A01 T02810154  RH  046%=      5-min Rain = 0
KEA1 090200Z 08010KT 28/15 A3008 RMK A01 T02810154  RH  046%=      5-min Rain = 0
KEA1 090201Z 08009KT 28/15 A3008 RMK A01 T02800154  RH  046%=      5-min Rain = 0
KEA1 090202Z 08010KT 28/15 A3009 RMK A01 T02800153  RH  046%=      5-min Rain = 0
KEA1 090203Z 07011KT 28/15 A3009 RMK A01 T02800153  RH  046%=      5-min Rain = 0
KEA1 090204Z 07010KT 28/15 A3009 RMK A01 T02800153  RH  046%=      5-min Rain = 0
KEA1 090205Z 07011KT 28/15 A3009 RMK A01 T02800153  RH  046%=      5-min Rain = 0
KEA1 090206Z 07010KT 28/15 A3009 RMK A01 T02790153  RH  046%=      5-min Rain = 0
KEA1 090207Z 07010KT 28/15 A3009 RMK A01 T02780153  RH  046%=      5-min Rain = 0
KEA1 090208Z 07011KT 28/15 A3009 RMK A01 T02780153  RH  047%=      5-min Rain = 0
KEA1 090209Z 07011KT 28/15 A3009 RMK A01 T02770153  RH  047%=      5-min Rain = 0
KEA1 090210Z 07011KT 28/15 A3009 RMK A01 T02770153  RH  047%=      5-min Rain = 0
KEA1 090211Z 07012KT 28/15 A3009 RMK A01 T02770153  RH  047%=      5-min Rain = 0
KEA1 090212Z 07012KT 28/15 A3009 RMK A01 T02770153  RH  047%=      5-min Rain = 0
KEA1 090213Z 07013KT 28/15 A3009 RMK A01 T02770153  RH  047%=      5-min Rain = 0
KEA1 090214Z 07012KT 28/15 A3009 RMK A01 T02770152  RH  047%=      5-min Rain = 0
KEA1 090215Z 08012KT 28/15 A3009 RMK A01 T02770153  RH  047%=      5-min Rain = 0
KEA1 090216Z 07010KT 28/15 A3009 RMK A01 T02760152  RH  047%=      5-min Rain = 0
KEA1 090217Z 08010KT 28/15 A3009 RMK A01 T02770153  RH  047%=      5-min Rain = 0
KEA1 090218Z 08009KT 28/15 A3009 RMK A01 T02760153  RH  047%=      5-min Rain = 0
KEA1 090219Z 08010KT 28/15 A301 RMK A01 T02750153  RH  047%=      5-min Rain = 0
KEA1 090220Z 08009KT 28/15 A3009 RMK A01 T02750153  RH  047%=      5-min Rain = 0
KEA1 090221Z 08008KT 27/15 A301 RMK A01 T02740153  RH  048%=      5-min Rain = 0
KEA1 090222Z 08009KT 27/15 A301 RMK A01 T02740153  RH  048%=      5-min Rain = 0
KEA1 090223Z 08009KT 27/15 A301 RMK A01 T02730153  RH  048%=      5-min Rain = 0
KEA1 090224Z 07010KT 27/15 A301 RMK A01 T02730153  RH  048%=      5-min Rain = 0
KEA1 090225Z 08009KT 27/15 A301 RMK A01 T02730154  RH  048%=      5-min Rain = 0
KEA1 090226Z 08009KT 27/15 A301 RMK A01 T02720153  RH  048%=      5-min Rain = 0
KEA1 090227Z 08008KT 27/15 A301 RMK A01 T02720153  RH  048%=      5-min Rain = 0
KEA1 090228Z 08010KT 27/15 A301 RMK A01 T02720154  RH  048%=      5-min Rain = 0
KEA1 090229Z 08009KT 27/15 A301 RMK A01 T02720154  RH  048%=      5-min Rain = 0
KEA1 090230Z 08009G14KT 27/15 A301 RMK A01 T02720153  RH  048%=      5-min Rain = 0
KEA1 090231Z 08010KT 27/15 A301 RMK A01 T02710153  RH  048%=      5-min Rain = 0
KEA1 090232Z 08009KT 27/15 A301 RMK A01 T02720154  RH  048%=      5-min Rain = 0
KEA1 090233Z 08008KT 27/15 A301 RMK A01 T02720153  RH  048%=      5-min Rain = 0
KEA1 090234Z 08008KT 27/15 A301 RMK A01 T02710154  RH  049%=      5-min Rain = 0
KEA1 090235Z 08008KT 27/15 A301 RMK A01 T02710154  RH  049%=      5-min Rain = 0
KEA1 090236Z 08010KT 27/15 A301 RMK A01 T02700154  RH  049%=      5-min Rain = 0
KEA1 090237Z 07009KT 27/15 A3011 RMK A01 T02700154  RH  049%=      5-min Rain = 0
KEA1 090238Z 07009KT 27/15 A3011 RMK A01 T02700154  RH  049%=      5-min Rain = 0
KEA1 090239Z 07008KT 27/15 A3011 RMK A01 T02690154  RH  049%=      5-min Rain = 0
KEA1 090240Z 07009KT 27/15 A3011 RMK A01 T02680154  RH  050%=      5-min Rain = 0
KEA1 090241Z 07008KT 27/15 A3011 RMK A01 T02680154  RH  050%=      5-min Rain = 0
KEA1 090242Z 06009KT 27/16 A3011 RMK A01 T02680155  RH  050%=      5-min Rain = 0
KEA1 090243Z 07008KT 27/15 A3011 RMK A01 T02680154  RH  050%=      5-min Rain = 0
KEA1 090244Z 07008KT 27/16 A3011 RMK A01 T02680155  RH  050%=      5-min Rain = 0
KEA1 090245Z 07007KT 27/16 A3011 RMK A01 T02680155  RH  050%=      5-min Rain = 0
KEA1 090246Z 07009KT 27/16 A3011 RMK A01 T02670155  RH  050%=      5-min Rain = 0
KEA1 090247Z 07008KT 27/15 A3011 RMK A01 T02660154  RH  050%=      5-min Rain = 0
KEA1 090248Z 07009KT 27/16 A301 RMK A01 T02660155  RH  050%=      5-min Rain = 0
KEA1 090249Z 08007KT 27/16 A301 RMK A01 T02660155  RH  050%=      5-min Rain = 0
KEA1 090250Z 08007KT 27/16 A301 RMK A01 T02660155  RH  050%=      5-min Rain = 0
KEA1 090251Z 08006KT 27/16 A3011 RMK A01 T02660155  RH  050%=      5-min Rain = 0
KEA1 090252Z 08006KT 27/16 A3011 RMK A01 T02660155  RH  051%=      5-min Rain = 0
KEA1 090253Z 08007KT 27/16 A3011 RMK A01 T02660155  RH  051%=      5-min Rain = 0
KEA1 090254Z 08007KT 27/16 A3011 RMK A01 T02660155  RH  051%=      5-min Rain = 0
KEA1 090255Z 08006KT 27/16 A3011 RMK A01 T02650155  RH  051%=      5-min Rain = 0
KEA1 090256Z 08006KT 27/16 A3011 RMK A01 T02650155  RH  051%=      5-min Rain = 0
KEA1 090257Z 08006KT 27/16 A3012 RMK A01 T02650155  RH  051%=      5-min Rain = 0
KEA1 090258Z 08006KT 27/16 A3012 RMK A01 T02650155  RH  051%=      5-min Rain = 0
KEA1 090259Z 08006KT 27/16 A3012 RMK A01 T02650155  RH  051%=      5-min Rain = 0
KEA1 090300Z 08006KT 27/16 A3012 RMK A01 T02650155  RH  051%=      5-min Rain = 0
KEA1 090301Z 08006KT 27/16 A3013 RMK A01 T02650155  RH  051%=      5-min Rain = 0
KEA1 090302Z 08005KT 26/16 A3013 RMK A01 T02640155  RH  051%=      5-min Rain = 0
KEA1 090303Z 08007KT 26/16 A3013 RMK A01 T02640155  RH  051%=      5-min Rain = 0
KEA1 090304Z 08007KT 26/16 A3013 RMK A01 T02640156  RH  051%=      5-min Rain = 0
KEA1 090305Z 08006KT 26/16 A3014 RMK A01 T02640155  RH  051%=      5-min Rain = 0
KEA1 090306Z 08006KT 26/16 A3014 RMK A01 T02640155  RH  051%=      5-min Rain = 0
KEA1 090307Z 08006KT 26/16 A3014 RMK A01 T02640156  RH  051%=      5-min Rain = 0
KEA1 090308Z 08006KT 26/16 A3014 RMK A01 T02640156  RH  051%=      5-min Rain = 0
KEA1 090309Z 08007KT 26/16 A3014 RMK A01 T02640155  RH  051%=      5-min Rain = 0
KEA1 090310Z 08005KT 27/16 A3015 RMK A01 T02650156  RH  051%=      5-min Rain = 0
KEA1 090311Z 08005KT 27/16 A3015 RMK A01 T02650156  RH  051%=      5-min Rain = 0
KEA1 090312Z 08005KT 27/16 A3015 RMK A01 T02650157  RH  051%=      5-min Rain = 0
KEA1 090313Z 08004KT 26/16 A3015 RMK A01 T02640156  RH  051%=      5-min Rain = 0
KEA1 090314Z 08005KT 27/16 A3015 RMK A01 T02650157  RH  051%=      5-min Rain = 0
KEA1 090315Z 07004KT 26/16 A3015 RMK A01 T02640156  RH  052%=      5-min Rain = 0
KEA1 090316Z 08004KT 26/16 A3015 RMK A01 T02640157  RH  052%=      5-min Rain = 0
KEA1 090317Z 08004KT 26/16 A3015 RMK A01 T02640157  RH  052%=      5-min Rain = 0
KEA1 090318Z 08003KT 26/16 A3015 RMK A01 T02640157  RH  052%=      5-min Rain = 0
KEA1 090319Z 09003KT 26/16 A3015 RMK A01 T02640157  RH  052%=      5-min Rain = 0
KEA1 090320Z 09004KT 26/16 A3015 RMK A01 T02630157  RH  052%=      5-min Rain = 0
KEA1 090321Z 09004KT 26/16 A3015 RMK A01 T02630157  RH  052%=      5-min Rain = 0
KEA1 090322Z 10004KT 26/16 A3015 RMK A01 T02630157  RH  052%=      5-min Rain = 0
KEA1 090323Z 10002KT 26/16 A3015 RMK A01 T02640157  RH  052%=      5-min Rain = 0
KEA1 090324Z 08002KT 26/16 A3015 RMK A01 T02630157  RH  052%=      5-min Rain = 0
KEA1 090325Z 04002KT 26/16 A3016 RMK A01 T02630157  RH  052%=      5-min Rain = 0
KEA1 090326Z 32003KT 26/16 A3016 RMK A01 T02630158  RH  053%=      5-min Rain = 0
KEA1 090327Z 30006KT 26/16 A3017 RMK A01 T02620159  RH  053%=      5-min Rain = 0
KEA1 090328Z 30009KT 26/16 A3017 RMK A01 T02600161  RH  054%=      5-min Rain = 0
KEA1 090329Z 29011KT 26/16 A3018 RMK A01 T02580162  RH  055%=      5-min Rain = 0
KEA1 090330Z 29012KT 26/16 A3018 RMK A01 T02580164  RH  056%=      5-min Rain = 0
KEA1 090331Z 29012KT 26/17 A3018 RMK A01 T02570165  RH  057%=      5-min Rain = 0
KEA1 090332Z 30011KT 26/17 A3018 RMK A01 T02560166  RH  057%=      5-min Rain = 0
KEA1 090333Z 29010KT 26/17 A3018 RMK A01 T02550165  RH  058%=      5-min Rain = 0
KEA1 090334Z 29012G17KT 25/17 A3017 RMK A01 T02540166  RH  058%=      5-min Rain = 0
KEA1 090335Z 28013KT 25/17 A3017 RMK A01 T02530166  RH  059%=      5-min Rain = 0
KEA1 090336Z 29014KT 25/17 A3017 RMK A01 T02520167  RH  059%=      5-min Rain = 0
KEA1 090337Z 27012KT 25/17 A3017 RMK A01 T02510169  RH  060%=      5-min Rain = 0
KEA1 090338Z 26014KT 25/17 A3017 RMK A01 T02490169  RH  061%=      5-min Rain = 0
KEA1 090339Z 26014KT 25/17 A3017 RMK A01 T02480170  RH  062%=      5-min Rain = 0
KEA1 090340Z 24012KT 25/17 A3016 RMK A01 T02470172  RH  063%=      5-min Rain = 0
KEA1 090341Z 23012KT 25/17 A3016 RMK A01 T02450173  RH  064%=      5-min Rain = 0
KEA1 090342Z 22015KT 24/18 A3015 RMK A01 T02420177  RH  067%=      5-min Rain = 0
KEA1 090343Z 20016KT 24/18 A3014 RMK A01 T02390183  RH  071%=      5-min Rain = 0
KEA1 090344Z 20014KT 23/18 A3014 RMK A01 T02340177  RH  070%=      5-min Rain = 0.01
KEA1 090345Z 18017KT 23/17 A3013 RMK A01 T02270173  RH  071%=      5-min Rain = 0
KEA1 090346Z 17011KT 22/18 A3014 RMK A01 T02200176  RH  076%=      5-min Rain = 0
KEA1 090347Z 14013KT 22/17 A3014 RMK A01 T02160173  RH  077%=      5-min Rain = 0
KEA1 090348Z 14012KT 22/17 A3014 RMK A01 T02220171  RH  072%=      5-min Rain = 0
KEA1 090349Z 15016KT 23/18 A3014 RMK A01 T02280177  RH  073%=      5-min Rain = 0
KEA1 090350Z 16017KT 22/18 A3014 RMK A01 T02240180  RH  076%=      5-min Rain = 0
KEA1 090351Z 16014KT 22/18 A3014 RMK A01 T02180180  RH  079%=      5-min Rain = 0
KEA1 090352Z 15016KT 22/18 A3015 RMK A01 T02150180  RH  080%=      5-min Rain = 0.01
KEA1 090353Z 14014KT 21/18 A3015 RMK A01 T02140180  RH  081%=      5-min Rain = 0
KEA1 090354Z 14016KT 21/18 A3015 RMK A01 T02120178  RH  081%=      5-min Rain = 0
KEA1 090355Z 15013G18KT 21/18 A3016 RMK A01 T02110176  RH  080%=      5-min Rain = 0
KEA1 090356Z 16008KT 21/18 A3016 RMK A01 T02100179  RH  082%=      5-min Rain = 0
KEA1 090357Z 16007KT 21/18 A3016 RMK A01 T02090181  RH  084%=      5-min Rain = 0.01
KEA1 090358Z 16008KT 21/18 A3016 RMK A01 T02060180  RH  085%=      5-min Rain = 0
KEA1 090359Z 17010KT 21/18 A3016 RMK A01 T02050181  RH  086%=      5-min Rain = 0
KEA1 090400Z 17012KT 20/18 A3016 RMK A01 T02040181  RH  087%=      5-min Rain = 0
KEA1 090401Z 17014KT 20/18 A3016 RMK A01 T02030180  RH  087%=      5-min Rain = 0
KEA1 090402Z 18015KT 20/18 A3016 RMK A01 T02020179  RH  087%=      5-min Rain = 0
KEA1 090403Z 18016KT 20/18 A3016 RMK A01 T02010180  RH  087%=      5-min Rain = 0.01
KEA1 090404Z 17014KT 20/18 A3015 RMK A01 T02000181  RH  089%=      5-min Rain = 0
KEA1 090405Z 16015KT 20/18 A3015 RMK A01 T01990180  RH  089%=      5-min Rain = 0
KEA1 090406Z 16016KT 20/18 A3015 RMK A01 T01980176  RH  087%=      5-min Rain = 0
KEA1 090407Z 17012KT 20/17 A3016 RMK A01 T01980174  RH  086%=      5-min Rain = 0
KEA1 090408Z 17009KT 20/17 A3016 RMK A01 T01970171  RH  085%=      5-min Rain = 0
KEA1 090409Z 17007KT 20/17 A3017 RMK A01 T01970171  RH  085%=      5-min Rain = 0
KEA1 090410Z 17006KT 20/17 A3017 RMK A01 T01980170  RH  084%=      5-min Rain = 0
KEA1 090411Z 18004KT 20/17 A3018 RMK A01 T01980169  RH  083%=      5-min Rain = 0
KEA1 090412Z 19004KT 20/17 A3018 RMK A01 T01980169  RH  083%=      5-min Rain = 0
KEA1 090413Z 18005KT 20/17 A3018 RMK A01 T01980169  RH  083%=      5-min Rain = 0
KEA1 090414Z 20006KT 20/17 A3018 RMK A01 T01980169  RH  084%=      5-min Rain = 0
KEA1 090415Z 21006KT 20/17 A3018 RMK A01 T01980169  RH  084%=      5-min Rain = 0
KEA1 090416Z 21007KT 20/17 A3018 RMK A01 T01970169  RH  084%=      5-min Rain = 0
KEA1 090417Z 21008KT 20/17 A3018 RMK A01 T01970169  RH  084%=      5-min Rain = 0
KEA1 090418Z 20009KT 20/17 A3018 RMK A01 T01980170  RH  084%=      5-min Rain = 0
KEA1 090419Z 20013KT 20/17 A3018 RMK A01 T01980170  RH  084%=      5-min Rain = 0
KEA1 090420Z 20015KT 20/16 A3018 RMK A01 T01970163  RH  081%=      5-min Rain = 0
KEA1 090421Z 21015KT 20/16 A3018 RMK A01 T01970160  RH  079%=      5-min Rain = 0
KEA1 090422Z 21014KT 20/16 A3018 RMK A01 T01960158  RH  079%=      5-min Rain = 0
KEA1 090423Z 22014KT 20/16 A3018 RMK A01 T01950157  RH  078%=      5-min Rain = 0
KEA1 090424Z 25015KT 20/16 A3019 RMK A01 T01960157  RH  078%=      5-min Rain = 0
KEA1 090425Z 25014KT 20/16 A302 RMK A01 T01980162  RH  080%=      5-min Rain = 0
KEA1 090426Z 25015KT 20/16 A302 RMK A01 T01960162  RH  081%=      5-min Rain = 0
KEA1 090427Z 24014KT 19/16 A302 RMK A01 T01940161  RH  081%=      5-min Rain = 0
KEA1 090428Z 24014KT 19/16 A302 RMK A01 T01930156  RH  079%=      5-min Rain = 0
KEA1 090429Z 23012KT 19/15 A302 RMK A01 T01920154  RH  078%=      5-min Rain = 0
KEA1 090430Z 23014KT 19/15 A302 RMK A01 T01920152  RH  077%=      5-min Rain = 0
KEA1 090431Z 23013KT 19/15 A3019 RMK A01 T01920151  RH  077%=      5-min Rain = 0
KEA1 090432Z 23016KT 19/16 A3019 RMK A01 T01930156  RH  079%=      5-min Rain = 0
KEA1 090433Z 23015KT 20/15 A3019 RMK A01 T01970154  RH  076%=      5-min Rain = 0
KEA1 090434Z 24017KT 20/15 A302 RMK A01 T02010153  RH  074%=      5-min Rain = 0
KEA1 090435Z 24015KT 20/16 A302 RMK A01 T02040157  RH  074%=      5-min Rain = 0
KEA1 090436Z 25015KT 21/16 A302 RMK A01 T02070159  RH  074%=      5-min Rain = 0
KEA1 090437Z 25013KT 21/16 A3021 RMK A01 T02060156  RH  073%=      5-min Rain = 0
KEA1 090438Z 25013KT 20/16 A3021 RMK A01 T02030156  RH  074%=      5-min Rain = 0
KEA1 090439Z 25011KT 20/16 A3021 RMK A01 T02020158  RH  076%=      5-min Rain = 0
KEA1 090440Z 25013KT 20/16 A302 RMK A01 T02000161  RH  078%=      5-min Rain = 0
KEA1 090441Z 24016G21KT 20/17 A302 RMK A01 T01990166  RH  081%=      5-min Rain = 0
KEA1 090442Z 24017KT 20/17 A302 RMK A01 T01980168  RH  083%=      5-min Rain = 0
KEA1 090443Z 23018KT 20/17 A3019 RMK A01 T01990169  RH  083%=      5-min Rain = 0
KEA1 090444Z 23017KT 20/17 A3019 RMK A01 T01980169  RH  083%=      5-min Rain = 0
KEA1 090445Z 23020KT 20/17 A3019 RMK A01 T01980170  RH  084%=      5-min Rain = 0
KEA1 090446Z 23016G23KT 20/17 A3019 RMK A01 T02000173  RH  085%=      5-min Rain = 0
KEA1 090447Z 23020KT 20/17 A3019 RMK A01 T02010172  RH  083%=      5-min Rain = 0
KEA1 090448Z 23018G23KT 20/17 A3019 RMK A01 T02020168  RH  081%=      5-min Rain = 0
KEA1 090449Z 23013KT 20/17 A3019 RMK A01 T02030171  RH  082%=      5-min Rain = 0
KEA1 090450Z 23015KT 20/17 A3019 RMK A01 T02030173  RH  083%=      5-min Rain = 0
KEA1 090451Z 23017KT 20/17 A3019 RMK A01 T02030171  RH  082%=      5-min Rain = 0
KEA1 090452Z 23016KT 20/17 A3019 RMK A01 T02020171  RH  082%=      5-min Rain = 0
KEA1 090453Z 23015KT 20/17 A302 RMK A01 T02030171  RH  082%=      5-min Rain = 0
KEA1 090454Z 24018KT 20/17 A302 RMK A01 T02010168  RH  081%=      5-min Rain = 0
KEA1 090455Z 24019KT 20/17 A302 RMK A01 T01980165  RH  081%=      5-min Rain = 0
KEA1 090456Z 23013G18KT 20/17 A302 RMK A01 T01950166  RH  083%=      5-min Rain = 0
KEA1 090457Z 22017G23KT 19/17 A302 RMK A01 T01940169  RH  086%=      5-min Rain = 0
KEA1 090458Z 21020G25KT 20/17 A302 RMK A01 T01950168  RH  084%=      5-min Rain = 0
KEA1 090459Z 21019KT 20/17 A302 RMK A01 T01960166  RH  083%=      5-min Rain = 0

Page generated in 0.0765 seconds.